Observation data for Sterling City on 06/25/2019      Previous  Date  Next       Current Mesonet Observations  Soil Data  Daily Summary Page  Observations in Plain Language
KSC1 250500Z 06003KT 21/14 A2997 RMK A01 T02090141  RH  065%=      5-min Rain = 0
KSC1 250501Z 05003KT 21/14 A2997 RMK A01 T02080140  RH  065%=      5-min Rain = 0
KSC1 250502Z 05003KT 21/14 A2997 RMK A01 T02080140  RH  065%=      5-min Rain = 0
KSC1 250503Z 04004KT 21/14 A2997 RMK A01 T02080141  RH  065%=      5-min Rain = 0
KSC1 250504Z 04004KT 21/14 A2997 RMK A01 T02080142  RH  066%=      5-min Rain = 0
KSC1 250505Z 03004KT 21/14 A2997 RMK A01 T02070143  RH  066%=      5-min Rain = 0
KSC1 250506Z 03004KT 21/14 A2996 RMK A01 T02060142  RH  067%=      5-min Rain = 0
KSC1 250507Z 03004KT 21/14 A2996 RMK A01 T02060143  RH  067%=      5-min Rain = 0
KSC1 250508Z 04005KT 21/14 A2996 RMK A01 T02050143  RH  068%=      5-min Rain = 0
KSC1 250509Z 05005KT 20/14 A2996 RMK A01 T02040144  RH  068%=      5-min Rain = 0
KSC1 250510Z 04005KT 20/14 A2996 RMK A01 T02040144  RH  068%=      5-min Rain = 0
KSC1 250511Z 04003KT 20/14 A2996 RMK A01 T02030144  RH  069%=      5-min Rain = 0
KSC1 250512Z 06003KT 20/14 A2995 RMK A01 T02020144  RH  069%=      5-min Rain = 0
KSC1 250513Z 08004KT 20/15 A2995 RMK A01 T02020145  RH  070%=      5-min Rain = 0
KSC1 250514Z 10004KT 20/15 A2995 RMK A01 T02020145  RH  070%=      5-min Rain = 0
KSC1 250515Z 11003KT 20/14 A2995 RMK A01 T02010144  RH  070%=      5-min Rain = 0
KSC1 250516Z 11003KT 20/15 A2995 RMK A01 T02010145  RH  070%=      5-min Rain = 0
KSC1 250517Z 11003KT 20/15 A2995 RMK A01 T02000145  RH  071%=      5-min Rain = 0
KSC1 250518Z 10004KT 20/15 A2995 RMK A01 T02000146  RH  071%=      5-min Rain = 0
KSC1 250519Z 09004KT 20/15 A2995 RMK A01 T01990146  RH  071%=      5-min Rain = 0
KSC1 250520Z 09005KT 20/15 A2995 RMK A01 T01970146  RH  072%=      5-min Rain = 0
KSC1 250521Z 08005KT 20/15 A2995 RMK A01 T01960146  RH  073%=      5-min Rain = 0
KSC1 250522Z 08005KT 20/15 A2995 RMK A01 T01960146  RH  073%=      5-min Rain = 0
KSC1 250523Z 07004KT 20/15 A2995 RMK A01 T01950147  RH  073%=      5-min Rain = 0
KSC1 250524Z 07003KT 20/15 A2995 RMK A01 T01950147  RH  074%=      5-min Rain = 0
KSC1 250525Z 07003KT 20/15 A2996 RMK A01 T01950147  RH  074%=      5-min Rain = 0
KSC1 250526Z 07003KT 19/15 A2996 RMK A01 T01940147  RH  074%=      5-min Rain = 0
KSC1 250527Z 07002KT 19/15 A2996 RMK A01 T01940147  RH  074%=      5-min Rain = 0
KSC1 250528Z 08001KT 19/15 A2996 RMK A01 T01940147  RH  074%=      5-min Rain = 0
KSC1 250529Z 13001KT 19/15 A2996 RMK A01 T01930147  RH  075%=      5-min Rain = 0
KSC1 250530Z 10001KT 19/15 A2996 RMK A01 T01930147  RH  075%=      5-min Rain = 0
KSC1 250531Z 07001KT 19/15 A2996 RMK A01 T01920147  RH  075%=      5-min Rain = 0
KSC1 250532Z 07002KT 19/15 A2995 RMK A01 T01920148  RH  076%=      5-min Rain = 0
KSC1 250533Z 08002KT 19/15 A2995 RMK A01 T01910148  RH  076%=      5-min Rain = 0
KSC1 250534Z 07003KT 19/15 A2995 RMK A01 T01900148  RH  076%=      5-min Rain = 0
KSC1 250535Z 09002KT 19/15 A2995 RMK A01 T01900148  RH  077%=      5-min Rain = 0
KSC1 250536Z 12002KT 19/15 A2995 RMK A01 T01890148  RH  077%=      5-min Rain = 0
KSC1 250537Z 14002KT 19/15 A2995 RMK A01 T01880149  RH  078%=      5-min Rain = 0
KSC1 250538Z 14002KT 19/15 A2995 RMK A01 T01870149  RH  079%=      5-min Rain = 0
KSC1 250539Z 13002KT 19/15 A2995 RMK A01 T01850149  RH  079%=      5-min Rain = 0
KSC1 250540Z 12002KT 18/15 A2995 RMK A01 T01840150  RH  080%=      5-min Rain = 0
KSC1 250541Z 12002KT 18/15 A2995 RMK A01 T01830150  RH  081%=      5-min Rain = 0
KSC1 250542Z 12002KT 18/15 A2995 RMK A01 T01820149  RH  081%=      5-min Rain = 0
KSC1 250543Z 11002KT 18/15 A2995 RMK A01 T01810149  RH  081%=      5-min Rain = 0
KSC1 250544Z 10002KT 18/15 A2995 RMK A01 T01810149  RH  082%=      5-min Rain = 0
KSC1 250545Z 10003KT 18/15 A2995 RMK A01 T01810150  RH  082%=      5-min Rain = 0
KSC1 250546Z 09003KT 18/15 A2995 RMK A01 T01810150  RH  082%=      5-min Rain = 0
KSC1 250547Z 09003KT 18/15 A2995 RMK A01 T01810150  RH  082%=      5-min Rain = 0
KSC1 250548Z 10003KT 18/15 A2995 RMK A01 T01800150  RH  082%=      5-min Rain = 0
KSC1 250549Z 11002KT 18/15 A2995 RMK A01 T01800150  RH  083%=      5-min Rain = 0
KSC1 250550Z 17002KT 18/15 A2995 RMK A01 T01790150  RH  083%=      5-min Rain = 0
KSC1 250551Z 19003KT 18/15 A2995 RMK A01 T01790150  RH  083%=      5-min Rain = 0
KSC1 250552Z 19002KT 18/15 A2995 RMK A01 T01790150  RH  083%=      5-min Rain = 0
KSC1 250553Z 17002KT 18/15 A2995 RMK A01 T01790150  RH  083%=      5-min Rain = 0
KSC1 250554Z 16002KT 18/15 A2995 RMK A01 T01790150  RH  083%=      5-min Rain = 0
KSC1 250555Z 12002KT 18/15 A2995 RMK A01 T01780149  RH  083%=      5-min Rain = 0
KSC1 250556Z 11003KT 18/15 A2995 RMK A01 T01780149  RH  083%=      5-min Rain = 0
KSC1 250557Z 06003KT 18/15 A2995 RMK A01 T01770150  RH  084%=      5-min Rain = 0
KSC1 250558Z 04004KT 18/15 A2995 RMK A01 T01760150  RH  085%=      5-min Rain = 0
KSC1 250559Z 02006KT 18/15 A2995 RMK A01 T01760151  RH  085%=      5-min Rain = 0
KSC1 250600Z 01008KT 18/15 A2996 RMK A01 T01760152  RH  085%=      5-min Rain = 0
KSC1 250601Z 01009KT 18/15 A2996 RMK A01 T01760152  RH  086%=      5-min Rain = 0
KSC1 250602Z 00008KT 18/15 A2996 RMK A01 T01760152  RH  086%=      5-min Rain = 0
KSC1 250603Z 01008KT 18/15 A2996 RMK A01 T01760152  RH  086%=      5-min Rain = 0
KSC1 250604Z 01008KT 18/15 A2997 RMK A01 T01780152  RH  085%=      5-min Rain = 0
KSC1 250605Z 00007KT 18/15 A2997 RMK A01 T01780151  RH  084%=      5-min Rain = 0
KSC1 250606Z 01007KT 18/15 A2997 RMK A01 T01790150  RH  083%=      5-min Rain = 0
KSC1 250607Z 01006KT 18/15 A2997 RMK A01 T01800148  RH  082%=      5-min Rain = 0
KSC1 250608Z 01006KT 18/15 A2996 RMK A01 T01810147  RH  081%=      5-min Rain = 0
KSC1 250609Z 03004KT 18/15 A2996 RMK A01 T01820146  RH  080%=      5-min Rain = 0
KSC1 250610Z 08002KT 18/15 A2996 RMK A01 T01840146  RH  078%=      5-min Rain = 0
KSC1 250611Z 15002KT 19/15 A2996 RMK A01 T01850146  RH  078%=      5-min Rain = 0
KSC1 250612Z 16005KT 19/15 A2995 RMK A01 T01860146  RH  078%=      5-min Rain = 0
KSC1 250613Z 16004KT 19/15 A2995 RMK A01 T01850146  RH  078%=      5-min Rain = 0
KSC1 250614Z 14004KT 18/15 A2995 RMK A01 T01840146  RH  078%=      5-min Rain = 0
KSC1 250615Z 11004KT 18/15 A2995 RMK A01 T01840145  RH  078%=      5-min Rain = 0
KSC1 250616Z 10004KT 18/15 A2995 RMK A01 T01830145  RH  078%=      5-min Rain = 0
KSC1 250617Z 13004KT 18/15 A2995 RMK A01 T01830145  RH  079%=      5-min Rain = 0
KSC1 250618Z 16003KT 18/15 A2996 RMK A01 T01820145  RH  079%=      5-min Rain = 0
KSC1 250619Z 16004KT 18/15 A2996 RMK A01 T01820145  RH  079%=      5-min Rain = 0
KSC1 250620Z 14003KT 18/14 A2995 RMK A01 T01820144  RH  078%=      5-min Rain = 0
KSC1 250621Z 12003KT 18/14 A2995 RMK A01 T01830144  RH  078%=      5-min Rain = 0
KSC1 250622Z 08002KT 19/15 A2995 RMK A01 T01850145  RH  078%=      5-min Rain = 0
KSC1 250623Z 08003KT 19/15 A2995 RMK A01 T01850145  RH  077%=      5-min Rain = 0
KSC1 250624Z 09003KT 19/15 A2996 RMK A01 T01860145  RH  077%=      5-min Rain = 0
KSC1 250625Z 11001KT 19/15 A2996 RMK A01 T01850145  RH  078%=      5-min Rain = 0
KSC1 250626Z 11001KT 18/15 A2996 RMK A01 T01840145  RH  078%=      5-min Rain = 0
KSC1 250627Z 05001KT 18/15 A2996 RMK A01 T01830145  RH  078%=      5-min Rain = 0
KSC1 250628Z 02002KT 18/15 A2996 RMK A01 T01820145  RH  079%=      5-min Rain = 0
KSC1 250629Z 33001KT 18/15 A2996 RMK A01 T01810145  RH  080%=      5-min Rain = 0
KSC1 250630Z 29002KT 18/15 A2996 RMK A01 T01800145  RH  080%=      5-min Rain = 0
KSC1 250631Z 26003KT 18/14 A2997 RMK A01 T01790144  RH  080%=      5-min Rain = 0
KSC1 250632Z 26005KT 18/14 A2997 RMK A01 T01780144  RH  080%=      5-min Rain = 0
KSC1 250633Z 26005KT 18/14 A2997 RMK A01 T01780144  RH  081%=      5-min Rain = 0
KSC1 250634Z 26004KT 18/14 A2996 RMK A01 T01780144  RH  080%=      5-min Rain = 0
KSC1 250635Z 28003KT 18/14 A2996 RMK A01 T01790144  RH  080%=      5-min Rain = 0
KSC1 250636Z 27003KT 18/14 A2996 RMK A01 T01790143  RH  080%=      5-min Rain = 0
KSC1 250637Z 26003KT 18/14 A2995 RMK A01 T01790143  RH  079%=      5-min Rain = 0
KSC1 250638Z 24003KT 18/14 A2995 RMK A01 T01790143  RH  079%=      5-min Rain = 0
KSC1 250639Z 23005KT 18/14 A2996 RMK A01 T01780142  RH  080%=      5-min Rain = 0
KSC1 250640Z 22006KT 18/14 A2996 RMK A01 T01760142  RH  080%=      5-min Rain = 0
KSC1 250641Z 21007KT 18/14 A2996 RMK A01 T01750142  RH  081%=      5-min Rain = 0
KSC1 250642Z 22006KT 18/14 A2996 RMK A01 T01750143  RH  081%=      5-min Rain = 0
KSC1 250643Z 22003KT 18/14 A2996 RMK A01 T01750143  RH  082%=      5-min Rain = 0
KSC1 250644Z 22001KT 18/14 A2995 RMK A01 T01750143  RH  081%=      5-min Rain = 0
KSC1 250645Z 05001KT 18/14 A2996 RMK A01 T01750142  RH  081%=      5-min Rain = 0
KSC1 250646Z 06001KT 18/14 A2996 RMK A01 T01750143  RH  082%=      5-min Rain = 0
KSC1 250647Z 20002KT 17/14 A2997 RMK A01 T01740143  RH  082%=      5-min Rain = 0
KSC1 250648Z 21003KT 17/14 A2997 RMK A01 T01730143  RH  082%=      5-min Rain = 0
KSC1 250649Z 23003KT 17/14 A2997 RMK A01 T01730143  RH  083%=      5-min Rain = 0
KSC1 250650Z 22001KT 17/14 A2996 RMK A01 T01730143  RH  083%=      5-min Rain = 0
KSC1 250651Z 17002KT 17/14 A2997 RMK A01 T01720143  RH  083%=      5-min Rain = 0
KSC1 250652Z 16003KT 17/14 A2997 RMK A01 T01730143  RH  083%=      5-min Rain = 0
KSC1 250653Z 15004KT 17/14 A2997 RMK A01 T01730143  RH  083%=      5-min Rain = 0
KSC1 250654Z 12004KT 17/14 A2996 RMK A01 T01720143  RH  083%=      5-min Rain = 0
KSC1 250655Z 12004KT 17/14 A2996 RMK A01 T01710142  RH  083%=      5-min Rain = 0
KSC1 250656Z 14005KT 17/14 A2996 RMK A01 T01700142  RH  084%=      5-min Rain = 0
KSC1 250657Z 15006KT 17/14 A2996 RMK A01 T01690144  RH  085%=      5-min Rain = 0
KSC1 250658Z 15006KT 17/15 A2996 RMK A01 T01690145  RH  086%=      5-min Rain = 0
KSC1 250659Z 14007KT 17/15 A2996 RMK A01 T01690146  RH  086%=      5-min Rain = 0
KSC1 250700Z 14007KT 17/15 A2996 RMK A01 T01690146  RH  086%=      5-min Rain = 0
KSC1 250701Z 14007KT 17/15 A2996 RMK A01 T01690146  RH  086%=      5-min Rain = 0
KSC1 250702Z 14005KT 17/15 A2996 RMK A01 T01690146  RH  086%=      5-min Rain = 0
KSC1 250703Z 15005KT 17/15 A2997 RMK A01 T01690146  RH  086%=      5-min Rain = 0
KSC1 250704Z 15004KT 17/15 A2997 RMK A01 T01690145  RH  086%=      5-min Rain = 0
KSC1 250705Z 15002KT 17/15 A2996 RMK A01 T01690145  RH  086%=      5-min Rain = 0
KSC1 250706Z 14001KT 17/15 A2996 RMK A01 T01680145  RH  086%=      5-min Rain = 0
KSC1 250707Z 09001KT 17/15 A2996 RMK A01 T01690145  RH  086%=      5-min Rain = 0
KSC1 250708Z 06001KT 17/15 A2997 RMK A01 T01680145  RH  086%=      5-min Rain = 0
KSC1 250709Z 08001KT 17/15 A2997 RMK A01 T01680146  RH  087%=      5-min Rain = 0
KSC1 250710Z 12001KT 17/15 A2998 RMK A01 T01680146  RH  087%=      5-min Rain = 0
KSC1 250711Z 13001KT 17/15 A2998 RMK A01 T01680146  RH  087%=      5-min Rain = 0
KSC1 250712Z 15002KT 17/15 A2998 RMK A01 T01680146  RH  087%=      5-min Rain = 0
KSC1 250713Z 17002KT 17/15 A2998 RMK A01 T01680147  RH  087%=      5-min Rain = 0
KSC1 250714Z 18003KT 17/15 A2998 RMK A01 T01680146  RH  087%=      5-min Rain = 0
KSC1 250715Z 18004KT 17/15 A2998 RMK A01 T01690145  RH  086%=      5-min Rain = 0
KSC1 250716Z 18005KT 17/14 A2998 RMK A01 T01700144  RH  085%=      5-min Rain = 0
KSC1 250717Z 17005KT 17/14 A2998 RMK A01 T01690142  RH  084%=      5-min Rain = 0
KSC1 250718Z 17005KT 17/14 A2997 RMK A01 T01680141  RH  084%=      5-min Rain = 0
KSC1 250719Z 17005KT 17/14 A2997 RMK A01 T01690142  RH  084%=      5-min Rain = 0
KSC1 250720Z 17006KT 17/14 A2997 RMK A01 T01700141  RH  083%=      5-min Rain = 0
KSC1 250721Z 17006KT 17/14 A2997 RMK A01 T01700141  RH  083%=      5-min Rain = 0
KSC1 250722Z 16006KT 17/14 A2996 RMK A01 T01710140  RH  082%=      5-min Rain = 0
KSC1 250723Z 16007KT 17/14 A2996 RMK A01 T01720141  RH  082%=      5-min Rain = 0
KSC1 250724Z 16006KT 17/14 A2996 RMK A01 T01730141  RH  082%=      5-min Rain = 0
KSC1 250725Z 16006KT 17/14 A2996 RMK A01 T01740142  RH  081%=      5-min Rain = 0
KSC1 250726Z 15005KT 18/14 A2996 RMK A01 T01760142  RH  081%=      5-min Rain = 0
KSC1 250727Z 15005KT 18/14 A2996 RMK A01 T01770142  RH  080%=      5-min Rain = 0
KSC1 250728Z 13003KT 18/14 A2996 RMK A01 T01780143  RH  080%=      5-min Rain = 0
KSC1 250729Z 11003KT 18/14 A2996 RMK A01 T01780143  RH  080%=      5-min Rain = 0
KSC1 250730Z 09003KT 18/14 A2996 RMK A01 T01780142  RH  080%=      5-min Rain = 0
KSC1 250731Z 09004KT 18/14 A2996 RMK A01 T01770142  RH  080%=      5-min Rain = 0
KSC1 250732Z 09004KT 18/14 A2996 RMK A01 T01760142  RH  080%=      5-min Rain = 0
KSC1 250733Z 08003KT 18/14 A2996 RMK A01 T01760142  RH  080%=      5-min Rain = 0
KSC1 250734Z 07003KT 18/14 A2996 RMK A01 T01760142  RH  081%=      5-min Rain = 0
KSC1 250735Z 08003KT 18/14 A2996 RMK A01 T01760142  RH  081%=      5-min Rain = 0
KSC1 250736Z 09003KT 18/14 A2996 RMK A01 T01760143  RH  081%=      5-min Rain = 0
KSC1 250737Z 09002KT 18/14 A2996 RMK A01 T01750142  RH  081%=      5-min Rain = 0
KSC1 250738Z 10002KT 18/14 A2996 RMK A01 T01750142  RH  081%=      5-min Rain = 0
KSC1 250739Z 12002KT 17/14 A2996 RMK A01 T01740142  RH  081%=      5-min Rain = 0
KSC1 250740Z 12002KT 17/14 A2996 RMK A01 T01740142  RH  082%=      5-min Rain = 0
KSC1 250741Z 13003KT 17/14 A2996 RMK A01 T01730142  RH  082%=      5-min Rain = 0
KSC1 250742Z 12002KT 17/14 A2996 RMK A01 T01720141  RH  082%=      5-min Rain = 0
KSC1 250743Z 13003KT 17/14 A2996 RMK A01 T01710141  RH  083%=      5-min Rain = 0
KSC1 250744Z 14003KT 17/14 A2996 RMK A01 T01700142  RH  083%=      5-min Rain = 0
KSC1 250745Z 15004KT 17/14 A2996 RMK A01 T01700143  RH  084%=      5-min Rain = 0
KSC1 250746Z 14004KT 17/14 A2996 RMK A01 T01700142  RH  084%=      5-min Rain = 0
KSC1 250747Z 15004KT 17/14 A2996 RMK A01 T01700141  RH  083%=      5-min Rain = 0
KSC1 250748Z 16004KT 17/14 A2996 RMK A01 T01700141  RH  083%=      5-min Rain = 0
KSC1 250749Z 16004KT 17/14 A2996 RMK A01 T01700141  RH  083%=      5-min Rain = 0
KSC1 250750Z 15005KT 17/14 A2996 RMK A01 T01700140  RH  083%=      5-min Rain = 0
KSC1 250751Z 15004KT 17/14 A2996 RMK A01 T01700139  RH  082%=      5-min Rain = 0
KSC1 250752Z 15004KT 17/14 A2996 RMK A01 T01700138  RH  082%=      5-min Rain = 0
KSC1 250753Z 16004KT 17/14 A2996 RMK A01 T01710139  RH  081%=      5-min Rain = 0
KSC1 250754Z 16004KT 17/14 A2996 RMK A01 T01710138  RH  081%=      5-min Rain = 0
KSC1 250755Z 15005KT 17/14 A2996 RMK A01 T01720138  RH  081%=      5-min Rain = 0
KSC1 250756Z 16004KT 17/14 A2996 RMK A01 T01730138  RH  080%=      5-min Rain = 0
KSC1 250757Z 15005KT 17/14 A2996 RMK A01 T01740138  RH  079%=      5-min Rain = 0
KSC1 250758Z 15005KT 18/14 A2996 RMK A01 T01750138  RH  079%=      5-min Rain = 0
KSC1 250759Z 15005KT 18/14 A2996 RMK A01 T01760138  RH  078%=      5-min Rain = 0
KSC1 250800Z 15006KT 18/14 A2996 RMK A01 T01770138  RH  078%=      5-min Rain = 0
KSC1 250801Z 15005KT 18/14 A2996 RMK A01 T01790138  RH  077%=      5-min Rain = 0
KSC1 250802Z 15005KT 18/14 A2996 RMK A01 T01800138  RH  076%=      5-min Rain = 0
KSC1 250803Z 16006KT 18/14 A2995 RMK A01 T01810138  RH  076%=      5-min Rain = 0
KSC1 250804Z 16005KT 18/14 A2995 RMK A01 T01810137  RH  075%=      5-min Rain = 0
KSC1 250805Z 15005KT 18/14 A2995 RMK A01 T01820137  RH  075%=      5-min Rain = 0
KSC1 250806Z 16005KT 18/14 A2995 RMK A01 T01830137  RH  075%=      5-min Rain = 0
KSC1 250807Z 16005KT 18/14 A2995 RMK A01 T01840137  RH  074%=      5-min Rain = 0
KSC1 250808Z 17006KT 18/14 A2995 RMK A01 T01840137  RH  074%=      5-min Rain = 0
KSC1 250809Z 17006KT 19/14 A2995 RMK A01 T01860137  RH  073%=      5-min Rain = 0
KSC1 250810Z 17006KT 19/14 A2995 RMK A01 T01880137  RH  072%=      5-min Rain = 0
KSC1 250811Z 17006KT 19/14 A2995 RMK A01 T01890136  RH  071%=      5-min Rain = 0
KSC1 250812Z 17005KT 19/14 A2995 RMK A01 T01900136  RH  071%=      5-min Rain = 0
KSC1 250813Z 17005KT 19/14 A2995 RMK A01 T01910136  RH  071%=      5-min Rain = 0
KSC1 250814Z 18007KT 19/14 A2995 RMK A01 T01910136  RH  070%=      5-min Rain = 0
KSC1 250815Z 17007KT 19/14 A2995 RMK A01 T01920137  RH  070%=      5-min Rain = 0
KSC1 250816Z 17005KT 19/14 A2995 RMK A01 T01940138  RH  070%=      5-min Rain = 0
KSC1 250817Z 17006KT 19/14 A2995 RMK A01 T01940138  RH  070%=      5-min Rain = 0
KSC1 250818Z 17006KT 20/14 A2995 RMK A01 T01950138  RH  070%=      5-min Rain = 0
KSC1 250819Z 17005KT 20/14 A2995 RMK A01 T01960138  RH  069%=      5-min Rain = 0
KSC1 250820Z 16006KT 20/14 A2995 RMK A01 T01960138  RH  069%=      5-min Rain = 0
KSC1 250821Z 16006KT 20/14 A2995 RMK A01 T01960138  RH  069%=      5-min Rain = 0
KSC1 250822Z 16006KT 20/14 A2995 RMK A01 T01960138  RH  069%=      5-min Rain = 0
KSC1 250823Z 16006KT 20/14 A2995 RMK A01 T01960138  RH  069%=      5-min Rain = 0
KSC1 250824Z 16005KT 20/14 A2995 RMK A01 T01970139  RH  069%=      5-min Rain = 0
KSC1 250825Z 17005KT 20/14 A2995 RMK A01 T01960139  RH  069%=      5-min Rain = 0
KSC1 250826Z 18007KT 20/14 A2995 RMK A01 T01950139  RH  070%=      5-min Rain = 0
KSC1 250827Z 18007KT 20/14 A2995 RMK A01 T01950139  RH  070%=      5-min Rain = 0
KSC1 250828Z 17006KT 20/14 A2995 RMK A01 T01960139  RH  070%=      5-min Rain = 0
KSC1 250829Z 17006KT 20/14 A2995 RMK A01 T01960139  RH  070%=      5-min Rain = 0
KSC1 250830Z 17007KT 20/14 A2995 RMK A01 T01960139  RH  070%=      5-min Rain = 0
KSC1 250831Z 17006KT 20/14 A2995 RMK A01 T01960139  RH  070%=      5-min Rain = 0
KSC1 250832Z 17006KT 20/14 A2995 RMK A01 T01960139  RH  070%=      5-min Rain = 0
KSC1 250833Z 17005KT 20/14 A2995 RMK A01 T01960139  RH  070%=      5-min Rain = 0
KSC1 250834Z 17007KT 20/14 A2995 RMK A01 T01960139  RH  070%=      5-min Rain = 0
KSC1 250835Z 17005KT 20/14 A2995 RMK A01 T01960139  RH  070%=      5-min Rain = 0
KSC1 250836Z 17005KT 20/14 A2995 RMK A01 T01960139  RH  070%=      5-min Rain = 0
KSC1 250837Z 17004KT 20/14 A2995 RMK A01 T01960139  RH  070%=      5-min Rain = 0
KSC1 250838Z 17004KT 20/14 A2995 RMK A01 T01950139  RH  070%=      5-min Rain = 0
KSC1 250839Z 18004KT 20/14 A2995 RMK A01 T01950139  RH  070%=      5-min Rain = 0
KSC1 250840Z 17006KT 20/14 A2995 RMK A01 T01950140  RH  070%=      5-min Rain = 0
KSC1 250841Z 17004KT 20/14 A2995 RMK A01 T01950140  RH  070%=      5-min Rain = 0
KSC1 250842Z 16005KT 20/14 A2995 RMK A01 T01950140  RH  070%=      5-min Rain = 0
KSC1 250843Z 17005KT 20/14 A2995 RMK A01 T01950139  RH  070%=      5-min Rain = 0
KSC1 250844Z 18004KT 19/14 A2995 RMK A01 T01940140  RH  070%=      5-min Rain = 0
KSC1 250845Z 17005KT 19/14 A2995 RMK A01 T01940140  RH  071%=      5-min Rain = 0
KSC1 250846Z 18006KT 19/14 A2994 RMK A01 T01940140  RH  071%=      5-min Rain = 0
KSC1 250847Z 17006KT 19/14 A2994 RMK A01 T01930140  RH  071%=      5-min Rain = 0
KSC1 250848Z 17006KT 19/14 A2994 RMK A01 T01930141  RH  071%=      5-min Rain = 0
KSC1 250849Z 18007KT 19/14 A2994 RMK A01 T01930141  RH  071%=      5-min Rain = 0
KSC1 250850Z 17006KT 19/14 A2994 RMK A01 T01940141  RH  071%=      5-min Rain = 0
KSC1 250851Z 18008KT 19/14 A2994 RMK A01 T01940141  RH  071%=      5-min Rain = 0
KSC1 250852Z 18008KT 20/14 A2994 RMK A01 T01960142  RH  071%=      5-min Rain = 0
KSC1 250853Z 18007KT 20/14 A2994 RMK A01 T01960142  RH  071%=      5-min Rain = 0
KSC1 250854Z 18007KT 20/14 A2994 RMK A01 T01970142  RH  071%=      5-min Rain = 0
KSC1 250855Z 18007KT 20/14 A2994 RMK A01 T01960142  RH  071%=      5-min Rain = 0
KSC1 250856Z 18007KT 20/14 A2994 RMK A01 T01960142  RH  071%=      5-min Rain = 0
KSC1 250857Z 18006KT 20/14 A2994 RMK A01 T01960142  RH  071%=      5-min Rain = 0
KSC1 250858Z 18008KT 20/14 A2994 RMK A01 T01950142  RH  071%=      5-min Rain = 0
KSC1 250859Z 18009KT 20/14 A2993 RMK A01 T01960142  RH  071%=      5-min Rain = 0
KSC1 250900Z 18007KT 20/14 A2994 RMK A01 T01960142  RH  071%=      5-min Rain = 0
KSC1 250901Z 18007KT 20/14 A2994 RMK A01 T01960142  RH  071%=      5-min Rain = 0
KSC1 250902Z 18007KT 20/14 A2994 RMK A01 T01960142  RH  071%=      5-min Rain = 0
KSC1 250903Z 19009KT 20/14 A2993 RMK A01 T01960142  RH  071%=      5-min Rain = 0
KSC1 250904Z 19008KT 20/14 A2994 RMK A01 T01970143  RH  071%=      5-min Rain = 0
KSC1 250905Z 18009KT 20/14 A2994 RMK A01 T01980143  RH  071%=      5-min Rain = 0
KSC1 250906Z 18010KT 20/14 A2993 RMK A01 T01980143  RH  070%=      5-min Rain = 0
KSC1 250907Z 18009KT 20/14 A2993 RMK A01 T01990143  RH  070%=      5-min Rain = 0
KSC1 250908Z 18009KT 20/14 A2994 RMK A01 T01990143  RH  070%=      5-min Rain = 0
KSC1 250909Z 18009KT 20/14 A2993 RMK A01 T01990143  RH  070%=      5-min Rain = 0
KSC1 250910Z 18008KT 20/14 A2993 RMK A01 T01990143  RH  070%=      5-min Rain = 0
KSC1 250911Z 19008KT 20/14 A2993 RMK A01 T01990143  RH  070%=      5-min Rain = 0
KSC1 250912Z 18007KT 20/14 A2994 RMK A01 T01980143  RH  070%=      5-min Rain = 0
KSC1 250913Z 19006KT 20/14 A2993 RMK A01 T01980143  RH  070%=      5-min Rain = 0
KSC1 250914Z 19006KT 20/14 A2993 RMK A01 T01970142  RH  071%=      5-min Rain = 0
KSC1 250915Z 19005KT 20/14 A2993 RMK A01 T01970142  RH  071%=      5-min Rain = 0
KSC1 250916Z 18006KT 20/14 A2993 RMK A01 T01960142  RH  071%=      5-min Rain = 0
KSC1 250917Z 18005KT 20/14 A2993 RMK A01 T01960143  RH  071%=      5-min Rain = 0
KSC1 250918Z 19006KT 20/14 A2994 RMK A01 T01950142  RH  072%=      5-min Rain = 0
KSC1 250919Z 18006KT 19/14 A2994 RMK A01 T01940143  RH  072%=      5-min Rain = 0
KSC1 250920Z 19006KT 19/14 A2994 RMK A01 T01940143  RH  072%=      5-min Rain = 0
KSC1 250921Z 19007KT 19/14 A2994 RMK A01 T01940143  RH  072%=      5-min Rain = 0
KSC1 250922Z 18006KT 19/14 A2994 RMK A01 T01940143  RH  072%=      5-min Rain = 0
KSC1 250923Z 20005KT 20/14 A2994 RMK A01 T01950143  RH  072%=      5-min Rain = 0
KSC1 250924Z 19005KT 19/14 A2994 RMK A01 T01940143  RH  072%=      5-min Rain = 0
KSC1 250925Z 20005KT 19/14 A2994 RMK A01 T01940143  RH  072%=      5-min Rain = 0
KSC1 250926Z 20005KT 19/14 A2994 RMK A01 T01940143  RH  072%=      5-min Rain = 0
KSC1 250927Z 22003KT 19/14 A2994 RMK A01 T01930143  RH  073%=      5-min Rain = 0
KSC1 250928Z 20005KT 19/14 A2994 RMK A01 T01920142  RH  073%=      5-min Rain = 0
KSC1 250929Z 22002KT 19/14 A2994 RMK A01 T01910142  RH  073%=      5-min Rain = 0
KSC1 250930Z 23002KT 19/14 A2994 RMK A01 T01910142  RH  073%=      5-min Rain = 0
KSC1 250931Z 20002KT 19/14 A2994 RMK A01 T01890142  RH  074%=      5-min Rain = 0
KSC1 250932Z 21002KT 19/14 A2994 RMK A01 T01880141  RH  074%=      5-min Rain = 0
KSC1 250933Z 19002KT 19/14 A2994 RMK A01 T01870141  RH  075%=      5-min Rain = 0
KSC1 250934Z 19004KT 19/14 A2994 RMK A01 T01860142  RH  075%=      5-min Rain = 0
KSC1 250935Z 17003KT 19/14 A2994 RMK A01 T01860142  RH  075%=      5-min Rain = 0
KSC1 250936Z 19002KT 19/14 A2994 RMK A01 T01860142  RH  075%=      5-min Rain = 0
KSC1 250937Z 19003KT 19/14 A2994 RMK A01 T01870142  RH  075%=      5-min Rain = 0
KSC1 250938Z 18005KT 19/14 A2994 RMK A01 T01860142  RH  075%=      5-min Rain = 0
KSC1 250939Z 19006KT 19/14 A2994 RMK A01 T01870143  RH  075%=      5-min Rain = 0
KSC1 250940Z 19003KT 19/14 A2994 RMK A01 T01890143  RH  075%=      5-min Rain = 0
KSC1 250941Z 19003KT 19/14 A2994 RMK A01 T01900143  RH  074%=      5-min Rain = 0
KSC1 250942Z 18002KT 19/14 A2994 RMK A01 T01900143  RH  074%=      5-min Rain = 0
KSC1 250943Z 18005KT 19/14 A2994 RMK A01 T01890143  RH  074%=      5-min Rain = 0
KSC1 250944Z 18006KT 19/14 A2994 RMK A01 T01900143  RH  074%=      5-min Rain = 0
KSC1 250945Z 17004KT 19/14 A2994 RMK A01 T01910143  RH  074%=      5-min Rain = 0
KSC1 250946Z 18005KT 19/14 A2994 RMK A01 T01910143  RH  074%=      5-min Rain = 0
KSC1 250947Z 19005KT 19/14 A2994 RMK A01 T01910143  RH  074%=      5-min Rain = 0
KSC1 250948Z 18006KT 19/14 A2994 RMK A01 T01910143  RH  074%=      5-min Rain = 0
KSC1 250949Z 18006G12KT 19/14 A2994 RMK A01 T01910143  RH  074%=      5-min Rain = 0
KSC1 250950Z 18008KT 19/14 A2994 RMK A01 T01910143  RH  074%=      5-min Rain = 0
KSC1 250951Z 17005KT 19/14 A2994 RMK A01 T01920143  RH  073%=      5-min Rain = 0
KSC1 250952Z 17005G10KT 19/14 A2994 RMK A01 T01930143  RH  073%=      5-min Rain = 0
KSC1 250953Z 18007KT 19/14 A2994 RMK A01 T01930143  RH  073%=      5-min Rain = 0
KSC1 250954Z 17003KT 19/14 A2994 RMK A01 T01930143  RH  073%=      5-min Rain = 0
KSC1 250955Z 17005KT 19/14 A2994 RMK A01 T01930143  RH  073%=      5-min Rain = 0
KSC1 250956Z 16004KT 19/14 A2994 RMK A01 T01920143  RH  073%=      5-min Rain = 0
KSC1 250957Z 16003KT 19/14 A2994 RMK A01 T01910143  RH  073%=      5-min Rain = 0
KSC1 250958Z 16004KT 19/14 A2994 RMK A01 T01900142  RH  074%=      5-min Rain = 0
KSC1 250959Z 16005KT 19/14 A2994 RMK A01 T01890142  RH  074%=      5-min Rain = 0
KSC1 251000Z 16004KT 19/14 A2994 RMK A01 T01890143  RH  075%=      5-min Rain = 0
KSC1 251001Z 16003KT 19/14 A2994 RMK A01 T01880142  RH  075%=      5-min Rain = 0
KSC1 251002Z 17004KT 19/14 A2995 RMK A01 T01880142  RH  075%=      5-min Rain = 0
KSC1 251003Z 16004KT 19/14 A2995 RMK A01 T01870142  RH  075%=      5-min Rain = 0
KSC1 251004Z 17004KT 19/14 A2995 RMK A01 T01870142  RH  075%=      5-min Rain = 0
KSC1 251005Z 16002KT 19/14 A2995 RMK A01 T01860143  RH  076%=      5-min Rain = 0
KSC1 251006Z 17004KT 19/14 A2995 RMK A01 T01860142  RH  076%=      5-min Rain = 0
KSC1 251007Z 16003KT 19/14 A2995 RMK A01 T01860143  RH  076%=      5-min Rain = 0
KSC1 251008Z 17004KT 19/14 A2995 RMK A01 T01850143  RH  076%=      5-min Rain = 0
KSC1 251009Z 15002KT 19/14 A2995 RMK A01 T01860143  RH  076%=      5-min Rain = 0
KSC1 251010Z 13001KT 19/14 A2995 RMK A01 T01860143  RH  076%=      5-min Rain = 0
KSC1 251011Z 13001KT 19/14 A2995 RMK A01 T01850142  RH  076%=      5-min Rain = 0
KSC1 251012Z 10002KT 19/14 A2995 RMK A01 T01850142  RH  076%=      5-min Rain = 0
KSC1 251013Z 13001KT 18/14 A2995 RMK A01 T01840142  RH  076%=      5-min Rain = 0
KSC1 251014Z 13002KT 18/14 A2995 RMK A01 T01820141  RH  077%=      5-min Rain = 0
KSC1 251015Z 12001KT 18/14 A2995 RMK A01 T01820142  RH  078%=      5-min Rain = 0
KSC1 251016Z 13001KT 18/14 A2995 RMK A01 T01800142  RH  078%=      5-min Rain = 0
KSC1 251017Z 11001KT 18/14 A2995 RMK A01 T01800142  RH  079%=      5-min Rain = 0
KSC1 251018Z 14000KT 18/14 A2995 RMK A01 T01790142  RH  079%=      5-min Rain = 0
KSC1 251019Z 13000KT 18/14 A2996 RMK A01 T01780141  RH  079%=      5-min Rain = 0
KSC1 251020Z 13001KT 18/14 A2996 RMK A01 T01770141  RH  079%=      5-min Rain = 0
KSC1 251021Z 16001KT 18/14 A2996 RMK A01 T01750139  RH  080%=      5-min Rain = 0
KSC1 251022Z 15000KT 17/14 A2996 RMK A01 T01730139  RH  081%=      5-min Rain = 0
KSC1 251023Z 16001KT 17/14 A2996 RMK A01 T01710140  RH  082%=      5-min Rain = 0
KSC1 251024Z 16001KT 17/14 A2996 RMK A01 T01700140  RH  083%=      5-min Rain = 0
KSC1 251025Z 19002KT 17/14 A2996 RMK A01 T01690141  RH  083%=      5-min Rain = 0
KSC1 251026Z 19002KT 17/14 A2996 RMK A01 T01680141  RH  084%=      5-min Rain = 0
KSC1 251027Z 20002KT 17/14 A2996 RMK A01 T01670143  RH  086%=      5-min Rain = 0
KSC1 251028Z 21004KT 17/14 A2996 RMK A01 T01670144  RH  086%=      5-min Rain = 0
KSC1 251029Z 20003KT 17/15 A2996 RMK A01 T01680146  RH  087%=      5-min Rain = 0
KSC1 251030Z 19003KT 17/15 A2996 RMK A01 T01700146  RH  086%=      5-min Rain = 0
KSC1 251031Z 21002KT 17/14 A2996 RMK A01 T01710143  RH  084%=      5-min Rain = 0
KSC1 251032Z 21002KT 17/14 A2996 RMK A01 T01710143  RH  083%=      5-min Rain = 0
KSC1 251033Z 21001KT 17/14 A2996 RMK A01 T01710142  RH  083%=      5-min Rain = 0
KSC1 251034Z 21001KT 17/14 A2996 RMK A01 T01700141  RH  083%=      5-min Rain = 0
KSC1 251035Z 21001KT 17/14 A2996 RMK A01 T01700143  RH  084%=      5-min Rain = 0
KSC1 251036Z 21001KT 17/14 A2996 RMK A01 T01690142  RH  084%=      5-min Rain = 0
KSC1 251037Z 21001KT 17/14 A2996 RMK A01 T01670140  RH  084%=      5-min Rain = 0
KSC1 251038Z 21000KT 17/14 A2996 RMK A01 T01650141  RH  085%=      5-min Rain = 0
KSC1 251039Z 21000KT 16/14 A2996 RMK A01 T01640143  RH  087%=      5-min Rain = 0
KSC1 251040Z 00000KT 16/14 A2996 RMK A01 T01630140  RH  086%=      5-min Rain = 0
KSC1 251041Z 19000KT 16/14 A2996 RMK A01 T01620143  RH  089%=      5-min Rain = 0
KSC1 251042Z 16001KT 16/15 A2997 RMK A01 T01610147  RH  091%=      5-min Rain = 0
KSC1 251043Z 14000KT 16/15 A2997 RMK A01 T01610147  RH  092%=      5-min Rain = 0
KSC1 251044Z 19000KT 16/15 A2997 RMK A01 T01600146  RH  091%=      5-min Rain = 0
KSC1 251045Z 18001KT 16/15 A2997 RMK A01 T01590145  RH  091%=      5-min Rain = 0
KSC1 251046Z 16001KT 16/14 A2997 RMK A01 T01580143  RH  091%=      5-min Rain = 0
KSC1 251047Z 17001KT 16/14 A2997 RMK A01 T01570142  RH  091%=      5-min Rain = 0
KSC1 251048Z 16001KT 16/14 A2997 RMK A01 T01560144  RH  092%=      5-min Rain = 0
KSC1 251049Z 16001KT 16/15 A2997 RMK A01 T01560145  RH  093%=      5-min Rain = 0
KSC1 251050Z 19001KT 16/14 A2997 RMK A01 T01550144  RH  093%=      5-min Rain = 0
KSC1 251051Z 17001KT 15/14 A2997 RMK A01 T01530143  RH  093%=      5-min Rain = 0
KSC1 251052Z 17001KT 15/14 A2997 RMK A01 T01530144  RH  095%=      5-min Rain = 0
KSC1 251053Z 17001KT 15/15 A2997 RMK A01 T01530146  RH  095%=      5-min Rain = 0
KSC1 251054Z 18000KT 15/15 A2997 RMK A01 T01520146  RH  096%=      5-min Rain = 0
KSC1 251055Z 20001KT 15/15 A2997 RMK A01 T01520149  RH  098%=      5-min Rain = 0
KSC1 251056Z 21000KT 15/15 A2997 RMK A01 T01520149  RH  098%=      5-min Rain = 0
KSC1 251057Z 21000KT 15/15 A2997 RMK A01 T01520150  RH  098%=      5-min Rain = 0
KSC1 251058Z 25001KT 15/15 A2997 RMK A01 T01520150  RH  099%=      5-min Rain = 0
KSC1 251059Z 26001KT 15/15 A2997 RMK A01 T01520152  RH  100%=      5-min Rain = 0
KSC1 251100Z 26000KT 15/15 A2997 RMK A01 T01520150  RH  099%=      5-min Rain = 0
KSC1 251101Z 25000KT 15/15 A2997 RMK A01 T01510148  RH  098%=      5-min Rain = 0
KSC1 251102Z 21001KT 15/15 A2997 RMK A01 T01500147  RH  098%=      5-min Rain = 0
KSC1 251103Z 19000KT 15/15 A2997 RMK A01 T01500148  RH  099%=      5-min Rain = 0
KSC1 251104Z 17001KT 15/15 A2997 RMK A01 T01490148  RH  099%=      5-min Rain = 0
KSC1 251105Z 00000KT 15/15 A2997 RMK A01 T01490148  RH  099%=      5-min Rain = 0
KSC1 251106Z 18000KT 15/15 A2997 RMK A01 T01480147  RH  099%=      5-min Rain = 0
KSC1 251107Z 00000KT 15/15 A2998 RMK A01 T01470146  RH  099%=      5-min Rain = 0
KSC1 251108Z 00000KT 15/15 A2998 RMK A01 T01470145  RH  099%=      5-min Rain = 0
KSC1 251109Z 00000KT 15/15 A2998 RMK A01 T01460145  RH  100%=      5-min Rain = 0
KSC1 251110Z 00000KT 15/15 A2998 RMK A01 T01460146  RH  100%=      5-min Rain = 0
KSC1 251111Z 25000KT 15/15 A2998 RMK A01 T01460146  RH  100%=      5-min Rain = 0
KSC1 251112Z 32000KT 15/15 A2998 RMK A01 T01450146  RH  100%=      5-min Rain = 0
KSC1 251113Z 00000KT 15/15 A2998 RMK A01 T01460146  RH  100%=      5-min Rain = 0
KSC1 251114Z 28001KT 15/15 A2998 RMK A01 T01450146  RH  100%=      5-min Rain = 0
KSC1 251115Z 28002KT 15/15 A2998 RMK A01 T01460146  RH  100%=      5-min Rain = 0
KSC1 251116Z 29002KT 15/15 A2998 RMK A01 T01480148  RH  100%=      5-min Rain = 0
KSC1 251117Z 28003KT 15/15 A2998 RMK A01 T01490149  RH  100%=      5-min Rain = 0
KSC1 251118Z 28002KT 15/15 A2998 RMK A01 T01490149  RH  100%=      5-min Rain = 0
KSC1 251119Z 30002KT 15/15 A2998 RMK A01 T01480148  RH  100%=      5-min Rain = 0
KSC1 251120Z 32001KT 15/15 A2998 RMK A01 T01460146  RH  100%=      5-min Rain = 0
KSC1 251121Z 30002KT 14/14 A2998 RMK A01 T01430144  RH  100%=      5-min Rain = 0
KSC1 251122Z 29002KT 14/14 A2998 RMK A01 T01430143  RH  100%=      5-min Rain = 0
KSC1 251123Z 29002KT 14/14 A2998 RMK A01 T01440144  RH  100%=      5-min Rain = 0
KSC1 251124Z 26002KT 14/14 A2998 RMK A01 T01430144  RH  100%=      5-min Rain = 0
KSC1 251125Z 27002KT 14/14 A2998 RMK A01 T01420142  RH  100%=      5-min Rain = 0
KSC1 251126Z 26002KT 14/14 A2998 RMK A01 T01420142  RH  100%=      5-min Rain = 0
KSC1 251127Z 26002KT 14/14 A2998 RMK A01 T01410141  RH  100%=      5-min Rain = 0
KSC1 251128Z 25002KT 14/14 A2998 RMK A01 T01410141  RH  100%=      5-min Rain = 0
KSC1 251129Z 26002KT 14/14 A2998 RMK A01 T01410141  RH  100%=      5-min Rain = 0
KSC1 251130Z 26002KT 14/14 A2998 RMK A01 T01400140  RH  100%=      5-min Rain = 0
KSC1 251131Z 25002KT 14/14 A2998 RMK A01 T01400140  RH  100%=      5-min Rain = 0
KSC1 251132Z 24002KT 14/14 A2998 RMK A01 T01400140  RH  100%=      5-min Rain = 0
KSC1 251133Z 24002KT 14/14 A2998 RMK A01 T01400140  RH  100%=      5-min Rain = 0
KSC1 251134Z 25002KT 14/14 A2998 RMK A01 T01390140  RH  100%=      5-min Rain = 0
KSC1 251135Z 23002KT 14/14 A2998 RMK A01 T01400140  RH  100%=      5-min Rain = 0
KSC1 251136Z 22002KT 14/14 A2998 RMK A01 T01400140  RH  100%=      5-min Rain = 0
KSC1 251137Z 23002KT 14/14 A2998 RMK A01 T01400140  RH  100%=      5-min Rain = 0
KSC1 251138Z 23002KT 14/14 A2998 RMK A01 T01390139  RH  100%=      5-min Rain = 0
KSC1 251139Z 25001KT 14/14 A2998 RMK A01 T01390140  RH  100%=      5-min Rain = 0
KSC1 251140Z 25002KT 14/14 A2998 RMK A01 T01380139  RH  100%=      5-min Rain = 0
KSC1 251141Z 25003KT 14/14 A2998 RMK A01 T01390139  RH  100%=      5-min Rain = 0
KSC1 251142Z 25003KT 14/14 A2998 RMK A01 T01410141  RH  100%=      5-min Rain = 0
KSC1 251143Z 24003KT 14/14 A2998 RMK A01 T01400140  RH  100%=      5-min Rain = 0
KSC1 251144Z 24004KT 14/14 A2998 RMK A01 T01380138  RH  100%=      5-min Rain = 0
KSC1 251145Z 23003KT 14/14 A2998 RMK A01 T01390139  RH  100%=      5-min Rain = 0
KSC1 251146Z 23004KT 14/14 A2998 RMK A01 T01400140  RH  100%=      5-min Rain = 0
KSC1 251147Z 24003KT 15/15 A2998 RMK A01 T01450145  RH  100%=      5-min Rain = 0
KSC1 251148Z 24004KT 15/15 A2998 RMK A01 T01480148  RH  100%=      5-min Rain = 0
KSC1 251149Z 24003KT 15/15 A2998 RMK A01 T01500151  RH  100%=      5-min Rain = 0
KSC1 251150Z 24004KT 15/15 A2998 RMK A01 T01520152  RH  100%=      5-min Rain = 0
KSC1 251151Z 24004KT 16/16 A2998 RMK A01 T01550155  RH  100%=      5-min Rain = 0
KSC1 251152Z 25004KT 16/16 A2998 RMK A01 T01570157  RH  100%=      5-min Rain = 0
KSC1 251153Z 25004KT 16/16 A2998 RMK A01 T01590160  RH  100%=      5-min Rain = 0
KSC1 251154Z 25003KT 16/16 A2998 RMK A01 T01620162  RH  100%=      5-min Rain = 0
KSC1 251155Z 24003KT 16/16 A2998 RMK A01 T01630162  RH  099%=      5-min Rain = 0
KSC1 251156Z 24004KT 17/16 A2998 RMK A01 T01650161  RH  097%=      5-min Rain = 0
KSC1 251157Z 25003KT 17/16 A2998 RMK A01 T01670160  RH  096%=      5-min Rain = 0
KSC1 251158Z 24004KT 17/16 A2998 RMK A01 T01680159  RH  094%=      5-min Rain = 0
KSC1 251159Z 25004KT 17/16 A2998 RMK A01 T01690158  RH  093%=      5-min Rain = 0
KSC1 251200Z 25004KT 17/16 A2998 RMK A01 T01710157  RH  091%=      5-min Rain = 0
KSC1 251201Z 24004KT 17/16 A2998 RMK A01 T01720156  RH  091%=      5-min Rain = 0
KSC1 251202Z 25004KT 17/16 A2998 RMK A01 T01730156  RH  090%=      5-min Rain = 0
KSC1 251203Z 24004KT 17/16 A2998 RMK A01 T01740156  RH  089%=      5-min Rain = 0
KSC1 251204Z 24004KT 18/16 A2998 RMK A01 T01750155  RH  088%=      5-min Rain = 0
KSC1 251205Z 23003KT 18/16 A2998 RMK A01 T01760155  RH  087%=      5-min Rain = 0
KSC1 251206Z 24003KT 18/16 A2998 RMK A01 T01770155  RH  087%=      5-min Rain = 0
KSC1 251207Z 23004KT 18/15 A2998 RMK A01 T01780154  RH  086%=      5-min Rain = 0
KSC1 251208Z 24003KT 18/15 A2998 RMK A01 T01790154  RH  085%=      5-min Rain = 0
KSC1 251209Z 25004KT 18/15 A2998 RMK A01 T01800153  RH  085%=      5-min Rain = 0
KSC1 251210Z 24003KT 18/15 A2998 RMK A01 T01810153  RH  084%=      5-min Rain = 0
KSC1 251211Z 24003KT 18/15 A2998 RMK A01 T01820153  RH  084%=      5-min Rain = 0
KSC1 251212Z 23003KT 18/15 A2998 RMK A01 T01820153  RH  083%=      5-min Rain = 0
KSC1 251213Z 23003KT 18/15 A2998 RMK A01 T01820153  RH  083%=      5-min Rain = 0
KSC1 251214Z 23003KT 18/15 A2998 RMK A01 T01830152  RH  082%=      5-min Rain = 0
KSC1 251215Z 24003KT 18/15 A2998 RMK A01 T01840152  RH  082%=      5-min Rain = 0
KSC1 251216Z 25003KT 19/15 A2998 RMK A01 T01850152  RH  081%=      5-min Rain = 0
KSC1 251217Z 23002KT 19/15 A2998 RMK A01 T01850151  RH  080%=      5-min Rain = 0
KSC1 251218Z 23005KT 19/15 A2998 RMK A01 T01870150  RH  079%=      5-min Rain = 0
KSC1 251219Z 26004KT 19/15 A2998 RMK A01 T01880150  RH  078%=      5-min Rain = 0
KSC1 251220Z 25002KT 19/15 A2998 RMK A01 T01900151  RH  078%=      5-min Rain = 0
KSC1 251221Z 24002KT 19/15 A2998 RMK A01 T01910151  RH  078%=      5-min Rain = 0
KSC1 251222Z 23003KT 19/15 A2998 RMK A01 T01910150  RH  077%=      5-min Rain = 0
KSC1 251223Z 23004KT 19/15 A2998 RMK A01 T01930148  RH  076%=      5-min Rain = 0
KSC1 251224Z 22002G7KT 19/15 A2998 RMK A01 T01940150  RH  076%=      5-min Rain = 0
KSC1 251225Z 21005KT 20/15 A2998 RMK A01 T01950149  RH  075%=      5-min Rain = 0
KSC1 251226Z 22005KT 20/15 A2998 RMK A01 T01960149  RH  074%=      5-min Rain = 0
KSC1 251227Z 23004G9KT 20/15 A2998 RMK A01 T01970148  RH  074%=      5-min Rain = 0
KSC1 251228Z 21005KT 20/15 A2998 RMK A01 T01980148  RH  073%=      5-min Rain = 0
KSC1 251229Z 22005KT 20/15 A2998 RMK A01 T01990149  RH  073%=      5-min Rain = 0
KSC1 251230Z 22004KT 20/15 A2998 RMK A01 T02000147  RH  072%=      5-min Rain = 0
KSC1 251231Z 22004KT 20/15 A2998 RMK A01 T02010148  RH  071%=      5-min Rain = 0
KSC1 251232Z 23003KT 20/15 A2998 RMK A01 T02020148  RH  071%=      5-min Rain = 0
KSC1 251233Z 24003KT 20/15 A2998 RMK A01 T02020148  RH  071%=      5-min Rain = 0
KSC1 251234Z 23003KT 20/15 A2998 RMK A01 T02030149  RH  071%=      5-min Rain = 0
KSC1 251235Z 21006KT 20/15 A2998 RMK A01 T02040148  RH  070%=      5-min Rain = 0
KSC1 251236Z 23004KT 21/15 A2998 RMK A01 T02050148  RH  070%=      5-min Rain = 0
KSC1 251237Z 23003KT 21/15 A2998 RMK A01 T02050149  RH  070%=      5-min Rain = 0
KSC1 251238Z 22004KT 21/15 A2998 RMK A01 T02060149  RH  070%=      5-min Rain = 0
KSC1 251239Z 24004KT 21/15 A2998 RMK A01 T02060150  RH  070%=      5-min Rain = 0
KSC1 251240Z 24006KT 21/15 A2998 RMK A01 T02070149  RH  070%=      5-min Rain = 0
KSC1 251241Z 23006KT 21/15 A2998 RMK A01 T02080149  RH  069%=      5-min Rain = 0
KSC1 251242Z 24005KT 21/15 A2998 RMK A01 T02090149  RH  069%=      5-min Rain = 0
KSC1 251243Z 22005KT 21/15 A2998 RMK A01 T02090149  RH  069%=      5-min Rain = 0
KSC1 251244Z 27002KT 21/15 A2998 RMK A01 T02100150  RH  069%=      5-min Rain = 0
KSC1 251245Z 27002KT 21/15 A2998 RMK A01 T02100151  RH  069%=      5-min Rain = 0
KSC1 251246Z 29003KT 21/15 A2998 RMK A01 T02110152  RH  069%=      5-min Rain = 0
KSC1 251247Z 27003KT 21/15 A2998 RMK A01 T02110151  RH  069%=      5-min Rain = 0
KSC1 251248Z 23003KT 21/15 A2998 RMK A01 T02120151  RH  068%=      5-min Rain = 0
KSC1 251249Z 24003KT 21/15 A2998 RMK A01 T02120152  RH  069%=      5-min Rain = 0
KSC1 251250Z 28002KT 21/15 A2998 RMK A01 T02130152  RH  068%=      5-min Rain = 0
KSC1 251251Z 27003KT 21/15 A2998 RMK A01 T02140151  RH  068%=      5-min Rain = 0
KSC1 251252Z 23004KT 21/15 A2998 RMK A01 T02140153  RH  068%=      5-min Rain = 0
KSC1 251253Z 22005KT 22/15 A2998 RMK A01 T02150153  RH  068%=      5-min Rain = 0
KSC1 251254Z 22004KT 22/15 A2998 RMK A01 T02160153  RH  067%=      5-min Rain = 0
KSC1 251255Z 23003KT 22/15 A2998 RMK A01 T02170152  RH  067%=      5-min Rain = 0
KSC1 251256Z 24003KT 22/15 A2998 RMK A01 T02170153  RH  067%=      5-min Rain = 0
KSC1 251257Z 23003KT 22/16 A2998 RMK A01 T02190155  RH  067%=      5-min Rain = 0
KSC1 251258Z 22004KT 22/15 A2998 RMK A01 T02200153  RH  066%=      5-min Rain = 0
KSC1 251259Z 22003KT 22/15 A2998 RMK A01 T02210154  RH  066%=      5-min Rain = 0
KSC1 251300Z 21004KT 22/15 A2998 RMK A01 T02220154  RH  065%=      5-min Rain = 0
KSC1 251301Z 24006KT 22/15 A2998 RMK A01 T02230154  RH  065%=      5-min Rain = 0
KSC1 251302Z 25003KT 22/16 A2998 RMK A01 T02230155  RH  065%=      5-min Rain = 0
KSC1 251303Z 23003KT 22/15 A2998 RMK A01 T02240153  RH  064%=      5-min Rain = 0
KSC1 251304Z 21006KT 23/15 A2998 RMK A01 T02250154  RH  064%=      5-min Rain = 0
KSC1 251305Z 21004KT 23/15 A2998 RMK A01 T02260153  RH  064%=      5-min Rain = 0
KSC1 251306Z 22006KT 23/15 A2998 RMK A01 T02260153  RH  063%=      5-min Rain = 0
KSC1 251307Z 24005KT 23/15 A2998 RMK A01 T02270152  RH  063%=      5-min Rain = 0
KSC1 251308Z 22005KT 23/15 A2998 RMK A01 T02280153  RH  063%=      5-min Rain = 0
KSC1 251309Z 21008G14KT 23/15 A2998 RMK A01 T02290154  RH  063%=      5-min Rain = 0
KSC1 251310Z 21008KT 23/15 A2998 RMK A01 T02300152  RH  062%=      5-min Rain = 0
KSC1 251311Z 23006KT 23/15 A2998 RMK A01 T02300152  RH  062%=      5-min Rain = 0
KSC1 251312Z 22006KT 23/15 A2998 RMK A01 T02310153  RH  062%=      5-min Rain = 0
KSC1 251313Z 21010KT 23/15 A2998 RMK A01 T02310151  RH  061%=      5-min Rain = 0
KSC1 251314Z 22007KT 23/15 A2998 RMK A01 T02310151  RH  061%=      5-min Rain = 0
KSC1 251315Z 21010KT 23/15 A2998 RMK A01 T02320151  RH  060%=      5-min Rain = 0
KSC1 251316Z 22010KT 23/15 A2998 RMK A01 T02320149  RH  060%=      5-min Rain = 0
KSC1 251317Z 21010KT 23/15 A2998 RMK A01 T02330150  RH  060%=      5-min Rain = 0
KSC1 251318Z 23009G15KT 23/15 A2998 RMK A01 T02330149  RH  059%=      5-min Rain = 0
KSC1 251319Z 21009KT 23/15 A2998 RMK A01 T02340148  RH  058%=      5-min Rain = 0
KSC1 251320Z 21009KT 24/15 A2998 RMK A01 T02350146  RH  058%=      5-min Rain = 0
KSC1 251321Z 22012KT 24/15 A2998 RMK A01 T02350147  RH  058%=      5-min Rain = 0
KSC1 251322Z 22010KT 24/15 A2998 RMK A01 T02360147  RH  057%=      5-min Rain = 0
KSC1 251323Z 21008KT 24/15 A2998 RMK A01 T02370146  RH  057%=      5-min Rain = 0
KSC1 251324Z 21010KT 24/15 A2998 RMK A01 T02370146  RH  057%=      5-min Rain = 0
KSC1 251325Z 22008KT 24/15 A2998 RMK A01 T02370145  RH  056%=      5-min Rain = 0
KSC1 251326Z 20011KT 24/15 A2998 RMK A01 T02380146  RH  056%=      5-min Rain = 0
KSC1 251327Z 20010G15KT 24/15 A2998 RMK A01 T02390146  RH  056%=      5-min Rain = 0
KSC1 251328Z 20011G17KT 24/14 A2998 RMK A01 T02400144  RH  055%=      5-min Rain = 0
KSC1 251329Z 20011KT 24/14 A2998 RMK A01 T02400143  RH  055%=      5-min Rain = 0
KSC1 251330Z 21012KT 24/14 A2998 RMK A01 T02400144  RH  055%=      5-min Rain = 0
KSC1 251331Z 20014KT 24/14 A2998 RMK A01 T02400143  RH  054%=      5-min Rain = 0
KSC1 251332Z 20013KT 24/14 A2998 RMK A01 T02410143  RH  054%=      5-min Rain = 0
KSC1 251333Z 21009G15KT 24/14 A2998 RMK A01 T02410143  RH  054%=      5-min Rain = 0
KSC1 251334Z 22009KT 24/14 A2998 RMK A01 T02410144  RH  054%=      5-min Rain = 0
KSC1 251335Z 20009G14KT 24/15 A2998 RMK A01 T02420145  RH  055%=      5-min Rain = 0
KSC1 251336Z 21013KT 24/15 A2998 RMK A01 T02430145  RH  054%=      5-min Rain = 0
KSC1 251337Z 22010KT 24/15 A2998 RMK A01 T02430145  RH  054%=      5-min Rain = 0
KSC1 251338Z 21010KT 24/15 A2998 RMK A01 T02440145  RH  054%=      5-min Rain = 0
KSC1 251339Z 21010KT 24/15 A2998 RMK A01 T02440146  RH  054%=      5-min Rain = 0
KSC1 251340Z 21008KT 25/15 A2998 RMK A01 T02450145  RH  054%=      5-min Rain = 0
KSC1 251341Z 20008KT 25/15 A2998 RMK A01 T02450146  RH  054%=      5-min Rain = 0
KSC1 251342Z 21010G18KT 25/15 A2998 RMK A01 T02460147  RH  054%=      5-min Rain = 0
KSC1 251343Z 22015KT 25/15 A2998 RMK A01 T02470146  RH  053%=      5-min Rain = 0
KSC1 251344Z 21011G16KT 25/15 A2998 RMK A01 T02470145  RH  053%=      5-min Rain = 0
KSC1 251345Z 20007KT 25/15 A2998 RMK A01 T02470146  RH  053%=      5-min Rain = 0
KSC1 251346Z 21014KT 25/15 A2998 RMK A01 T02480147  RH  053%=      5-min Rain = 0
KSC1 251347Z 21013KT 25/15 A2998 RMK A01 T02490146  RH  053%=      5-min Rain = 0
KSC1 251348Z 20011KT 25/15 A2998 RMK A01 T02490146  RH  053%=      5-min Rain = 0
KSC1 251349Z 21011KT 25/15 A2998 RMK A01 T02490146  RH  053%=      5-min Rain = 0
KSC1 251350Z 21008G13KT 25/15 A2998 RMK A01 T02490147  RH  053%=      5-min Rain = 0
KSC1 251351Z 21007KT 25/15 A2998 RMK A01 T02500149  RH  053%=      5-min Rain = 0
KSC1 251352Z 22008KT 25/15 A2998 RMK A01 T02520149  RH  053%=      5-min Rain = 0
KSC1 251353Z 22007G12KT 25/15 A2998 RMK A01 T02530150  RH  053%=      5-min Rain = 0
KSC1 251354Z 22009G15KT 25/15 A2998 RMK A01 T02530149  RH  052%=      5-min Rain = 0
KSC1 251355Z 21009G14KT 25/15 A2999 RMK A01 T02540150  RH  053%=      5-min Rain = 0
KSC1 251356Z 20012G19KT 26/15 A2998 RMK A01 T02550149  RH  052%=      5-min Rain = 0
KSC1 251357Z 22014KT 25/15 A2998 RMK A01 T02540148  RH  052%=      5-min Rain = 0
KSC1 251358Z 21014KT 26/15 A2999 RMK A01 T02550147  RH  051%=      5-min Rain = 0
KSC1 251359Z 21011KT 25/15 A2999 RMK A01 T02540148  RH  052%=      5-min Rain = 0
KSC1 251400Z 21013G18KT 25/15 A2998 RMK A01 T02540147  RH  052%=      5-min Rain = 0
KSC1 251401Z 21008KT 25/15 A2999 RMK A01 T02540148  RH  052%=      5-min Rain = 0
KSC1 251402Z 21010G17KT 26/15 A2999 RMK A01 T02550150  RH  052%=      5-min Rain = 0
KSC1 251403Z 21010G15KT 26/15 A2999 RMK A01 T02570150  RH  052%=      5-min Rain = 0
KSC1 251404Z 21011KT 26/15 A2999 RMK A01 T02570150  RH  052%=      5-min Rain = 0
KSC1 251405Z 21008KT 26/15 A2999 RMK A01 T02580150  RH  052%=      5-min Rain = 0
KSC1 251406Z 22010KT 26/15 A2999 RMK A01 T02590152  RH  052%=      5-min Rain = 0
KSC1 251407Z 21009G16KT 26/15 A2999 RMK A01 T02600151  RH  051%=      5-min Rain = 0
KSC1 251408Z 20011KT 26/15 A2999 RMK A01 T02600151  RH  051%=      5-min Rain = 0
KSC1 251409Z 21008KT 26/15 A2999 RMK A01 T02600152  RH  051%=      5-min Rain = 0
KSC1 251410Z 21005KT 26/15 A2999 RMK A01 T02610153  RH  051%=      5-min Rain = 0
KSC1 251411Z 21006KT 26/16 A2999 RMK A01 T02620155  RH  052%=      5-min Rain = 0
KSC1 251412Z 19010G15KT 26/16 A2999 RMK A01 T02640155  RH  051%=      5-min Rain = 0
KSC1 251413Z 19008KT 26/15 A2999 RMK A01 T02640153  RH  050%=      5-min Rain = 0
KSC1 251414Z 20007G12KT 26/16 A2999 RMK A01 T02640155  RH  051%=      5-min Rain = 0
KSC1 251415Z 22010KT 27/16 A2999 RMK A01 T02650155  RH  051%=      5-min Rain = 0
KSC1 251416Z 20009KT 27/15 A2999 RMK A01 T02650154  RH  050%=      5-min Rain = 0
KSC1 251417Z 22010KT 27/15 A2999 RMK A01 T02650154  RH  050%=      5-min Rain = 0
KSC1 251418Z 22008KT 27/15 A2999 RMK A01 T02650154  RH  050%=      5-min Rain = 0
KSC1 251419Z 22009KT 27/16 A2999 RMK A01 T02650155  RH  051%=      5-min Rain = 0
KSC1 251420Z 22006KT 27/16 A30 RMK A01 T02650156  RH  051%=      5-min Rain = 0
KSC1 251421Z 20008KT 27/16 A30 RMK A01 T02670157  RH  051%=      5-min Rain = 0
KSC1 251422Z 21008KT 27/16 A30 RMK A01 T02680156  RH  050%=      5-min Rain = 0
KSC1 251423Z 21006KT 27/16 A30 RMK A01 T02690155  RH  050%=      5-min Rain = 0
KSC1 251424Z 23005KT 27/16 A30 RMK A01 T02700158  RH  050%=      5-min Rain = 0
KSC1 251425Z 22008KT 27/16 A30 RMK A01 T02720159  RH  050%=      5-min Rain = 0
KSC1 251426Z 23010KT 27/16 A30 RMK A01 T02720156  RH  049%=      5-min Rain = 0
KSC1 251427Z 21007KT 27/16 A30 RMK A01 T02720157  RH  049%=      5-min Rain = 0
KSC1 251428Z 21009KT 27/16 A30 RMK A01 T02720157  RH  049%=      5-min Rain = 0
KSC1 251429Z 21008KT 27/16 A30 RMK A01 T02720155  RH  049%=      5-min Rain = 0
KSC1 251430Z 22006KT 27/16 A30 RMK A01 T02710155  RH  049%=      5-min Rain = 0
KSC1 251431Z 21008KT 27/16 A30 RMK A01 T02720156  RH  049%=      5-min Rain = 0
KSC1 251432Z 22007KT 27/16 A30 RMK A01 T02730156  RH  049%=      5-min Rain = 0
KSC1 251433Z 19006G12KT 27/16 A30 RMK A01 T02730157  RH  049%=      5-min Rain = 0
KSC1 251434Z 19009G14KT 27/16 A30 RMK A01 T02740156  RH  049%=      5-min Rain = 0
KSC1 251435Z 21009KT 27/16 A30 RMK A01 T02740156  RH  048%=      5-min Rain = 0
KSC1 251436Z 19012KT 28/16 A30 RMK A01 T02750156  RH  048%=      5-min Rain = 0
KSC1 251437Z 20010KT 27/16 A30 RMK A01 T02740156  RH  049%=      5-min Rain = 0
KSC1 251438Z 21007KT 27/16 A30 RMK A01 T02740157  RH  049%=      5-min Rain = 0
KSC1 251439Z 21010KT 28/16 A30 RMK A01 T02750159  RH  049%=      5-min Rain = 0
KSC1 251440Z 20011KT 28/16 A30 RMK A01 T02760157  RH  048%=      5-min Rain = 0
KSC1 251441Z 20009KT 28/16 A30 RMK A01 T02760157  RH  048%=      5-min Rain = 0
KSC1 251442Z 20009KT 28/16 A30 RMK A01 T02760158  RH  049%=      5-min Rain = 0
KSC1 251443Z 20009KT 28/16 A30 RMK A01 T02760156  RH  048%=      5-min Rain = 0
KSC1 251444Z 22009KT 28/16 A30 RMK A01 T02770159  RH  049%=      5-min Rain = 0
KSC1 251445Z 22009G14KT 28/16 A30 RMK A01 T02790159  RH  048%=      5-min Rain = 0
KSC1 251446Z 22011KT 28/16 A30 RMK A01 T02800159  RH  048%=      5-min Rain = 0
KSC1 251447Z 21012G18KT 28/16 A2999 RMK A01 T02800158  RH  047%=      5-min Rain = 0
KSC1 251448Z 20010KT 28/16 A30 RMK A01 T02790158  RH  048%=      5-min Rain = 0
KSC1 251449Z 21012KT 28/16 A30 RMK A01 T02790157  RH  047%=      5-min Rain = 0
KSC1 251450Z 20008KT 28/16 A30 RMK A01 T02780157  RH  048%=      5-min Rain = 0
KSC1 251451Z 21011KT 28/16 A30 RMK A01 T02790159  RH  048%=      5-min Rain = 0
KSC1 251452Z 20014KT 28/16 A2999 RMK A01 T02790158  RH  048%=      5-min Rain = 0
KSC1 251453Z 21011KT 28/16 A30 RMK A01 T02790158  RH  048%=      5-min Rain = 0
KSC1 251454Z 20012KT 28/16 A2999 RMK A01 T02790160  RH  048%=      5-min Rain = 0
KSC1 251455Z 21007KT 28/16 A2999 RMK A01 T02790160  RH  048%=      5-min Rain = 0
KSC1 251456Z 19010KT 28/16 A2999 RMK A01 T02810162  RH  048%=      5-min Rain = 0
KSC1 251457Z 21010KT 28/16 A2999 RMK A01 T02820160  RH  048%=      5-min Rain = 0
KSC1 251458Z 23010KT 28/16 A30 RMK A01 T02820160  RH  048%=      5-min Rain = 0
KSC1 251459Z 24011KT 28/16 A2999 RMK A01 T02810161  RH  048%=      5-min Rain = 0
KSC1 251500Z 23008KT 28/16 A2999 RMK A01 T02810161  RH  048%=      5-min Rain = 0
KSC1 251501Z 22007KT 28/16 A2999 RMK A01 T02820162  RH  048%=      5-min Rain = 0
KSC1 251502Z 24009G14KT 28/16 A2999 RMK A01 T02830164  RH  048%=      5-min Rain = 0
KSC1 251503Z 24010KT 29/16 A2999 RMK A01 T02850162  RH  047%=      5-min Rain = 0
KSC1 251504Z 23011KT 29/16 A2999 RMK A01 T02850163  RH  048%=      5-min Rain = 0
KSC1 251505Z 22008KT 28/16 A2999 RMK A01 T02840163  RH  048%=      5-min Rain = 0
KSC1 251506Z 21012KT 28/16 A2999 RMK A01 T02840164  RH  048%=      5-min Rain = 0
KSC1 251507Z 20012KT 29/16 A2999 RMK A01 T02850163  RH  048%=      5-min Rain = 0
KSC1 251508Z 20011KT 29/16 A2999 RMK A01 T02860163  RH  047%=      5-min Rain = 0
KSC1 251509Z 21009KT 29/16 A30 RMK A01 T02860163  RH  047%=      5-min Rain = 0
KSC1 251510Z 21007KT 29/16 A30 RMK A01 T02850163  RH  048%=      5-min Rain = 0
KSC1 251511Z 22009KT 29/16 A30 RMK A01 T02850164  RH  048%=      5-min Rain = 0
KSC1 251512Z 20011KT 29/16 A30 RMK A01 T02860164  RH  048%=      5-min Rain = 0
KSC1 251513Z 20009KT 29/16 A30 RMK A01 T02850162  RH  047%=      5-min Rain = 0
KSC1 251514Z 19006KT 28/16 A30 RMK A01 T02840163  RH  048%=      5-min Rain = 0
KSC1 251515Z 21006KT 29/16 A30 RMK A01 T02860164  RH  048%=      5-min Rain = 0
KSC1 251516Z 22008KT 29/17 A30 RMK A01 T02880166  RH  048%=      5-min Rain = 0
KSC1 251517Z 23007KT 29/16 A30 RMK A01 T02900164  RH  046%=      5-min Rain = 0
KSC1 251518Z 22007KT 29/16 A3001 RMK A01 T02900163  RH  046%=      5-min Rain = 0
KSC1 251519Z 20008KT 29/16 A3001 RMK A01 T02890164  RH  047%=      5-min Rain = 0
KSC1 251520Z 20010KT 29/16 A3001 RMK A01 T02900163  RH  046%=      5-min Rain = 0
KSC1 251521Z 20006KT 29/16 A3001 RMK A01 T02900164  RH  046%=      5-min Rain = 0
KSC1 251522Z 22008KT 29/16 A3001 RMK A01 T02910164  RH  046%=      5-min Rain = 0
KSC1 251523Z 22007KT 29/16 A3001 RMK A01 T02910162  RH  046%=      5-min Rain = 0
KSC1 251524Z 19009KT 29/16 A3001 RMK A01 T02900163  RH  046%=      5-min Rain = 0
KSC1 251525Z 15008KT 29/16 A3002 RMK A01 T02900164  RH  047%=      5-min Rain = 0
KSC1 251526Z 16006KT 29/16 A3002 RMK A01 T02920164  RH  046%=      5-min Rain = 0
KSC1 251527Z 20005KT 29/17 A3002 RMK A01 T02930166  RH  046%=      5-min Rain = 0
KSC1 251528Z 17005G10KT 30/17 A3002 RMK A01 T02950166  RH  046%=      5-min Rain = 0
KSC1 251529Z 15009KT 30/16 A3002 RMK A01 T02970163  RH  045%=      5-min Rain = 0
KSC1 251530Z 17007KT 30/16 A3002 RMK A01 T02960163  RH  045%=      5-min Rain = 0
KSC1 251531Z 17009KT 30/16 A3002 RMK A01 T02950163  RH  045%=      5-min Rain = 0
KSC1 251532Z 15008KT 29/16 A3002 RMK A01 T02940161  RH  045%=      5-min Rain = 0
KSC1 251533Z 18007KT 29/16 A3002 RMK A01 T02920162  RH  045%=      5-min Rain = 0
KSC1 251534Z 15010KT 29/16 A3002 RMK A01 T02930162  RH  045%=      5-min Rain = 0
KSC1 251535Z 14012KT 30/16 A3002 RMK A01 T02950160  RH  044%=      5-min Rain = 0
KSC1 251536Z 14010KT 30/16 A3002 RMK A01 T02950161  RH  044%=      5-min Rain = 0
KSC1 251537Z 15012KT 30/16 A3002 RMK A01 T02950161  RH  044%=      5-min Rain = 0
KSC1 251538Z 16012KT 29/16 A3002 RMK A01 T02940158  RH  044%=      5-min Rain = 0
KSC1 251539Z 15007KT 29/16 A3002 RMK A01 T02930159  RH  044%=      5-min Rain = 0
KSC1 251540Z 16007KT 29/16 A3002 RMK A01 T02940160  RH  044%=      5-min Rain = 0
KSC1 251541Z 16010KT 30/16 A3002 RMK A01 T02950160  RH  044%=      5-min Rain = 0
KSC1 251542Z 17011KT 30/16 A3002 RMK A01 T02960160  RH  044%=      5-min Rain = 0
KSC1 251543Z 16010KT 30/16 A3002 RMK A01 T02970160  RH  044%=      5-min Rain = 0
KSC1 251544Z 16008KT 30/16 A3002 RMK A01 T02980160  RH  043%=      5-min Rain = 0
KSC1 251545Z 17006KT 30/16 A3002 RMK A01 T02990164  RH  044%=      5-min Rain = 0
KSC1 251546Z 15009KT 30/16 A3002 RMK A01 T03020163  RH  043%=      5-min Rain = 0
KSC1 251547Z 13009KT 30/16 A3002 RMK A01 T03020161  RH  043%=      5-min Rain = 0
KSC1 251548Z 14011KT 30/16 A3002 RMK A01 T02990159  RH  043%=      5-min Rain = 0
KSC1 251549Z 14008KT 30/16 A3002 RMK A01 T02960158  RH  043%=      5-min Rain = 0
KSC1 251550Z 15009KT 29/16 A3002 RMK A01 T02940159  RH  044%=      5-min Rain = 0
KSC1 251551Z 14006KT 29/16 A3002 RMK A01 T02940161  RH  045%=      5-min Rain = 0
KSC1 251552Z 14005KT 29/16 A3002 RMK A01 T02940159  RH  044%=      5-min Rain = 0
KSC1 251553Z 16007KT 29/16 A3002 RMK A01 T02940160  RH  044%=      5-min Rain = 0
KSC1 251554Z 17011KT 30/16 A3002 RMK A01 T02960162  RH  044%=      5-min Rain = 0
KSC1 251555Z 17010KT 30/16 A3002 RMK A01 T02970160  RH  044%=      5-min Rain = 0
KSC1 251556Z 18007KT 30/16 A3002 RMK A01 T02960159  RH  043%=      5-min Rain = 0
KSC1 251557Z 18004KT 30/16 A3002 RMK A01 T02950158  RH  044%=      5-min Rain = 0
KSC1 251558Z 17005KT 29/16 A3002 RMK A01 T02930159  RH  044%=      5-min Rain = 0
KSC1 251559Z 17010KT 30/16 A3002 RMK A01 T02950163  RH  045%=      5-min Rain = 0
KSC1 251600Z 17009KT 30/16 A3002 RMK A01 T02980162  RH  044%=      5-min Rain = 0
KSC1 251601Z 17007KT 30/16 A3002 RMK A01 T02990161  RH  043%=      5-min Rain = 0
KSC1 251602Z 14008KT 30/16 A3002 RMK A01 T02990162  RH  044%=      5-min Rain = 0
KSC1 251603Z 14008KT 30/16 A3002 RMK A01 T02990162  RH  044%=      5-min Rain = 0
KSC1 251604Z 15008KT 30/16 A3002 RMK A01 T03000162  RH  043%=      5-min Rain = 0
KSC1 251605Z 14006KT 30/16 A3002 RMK A01 T02990161  RH  043%=      5-min Rain = 0
KSC1 251606Z 14004KT 30/16 A3002 RMK A01 T02970159  RH  043%=      5-min Rain = 0
KSC1 251607Z 15006KT 29/16 A3002 RMK A01 T02940160  RH  044%=      5-min Rain = 0
KSC1 251608Z 18010KT 30/16 A3002 RMK A01 T02950162  RH  045%=      5-min Rain = 0
KSC1 251609Z 16012G18KT 30/16 A3002 RMK A01 T02970163  RH  044%=      5-min Rain = 0
KSC1 251610Z 12012KT 30/16 A3003 RMK A01 T02990163  RH  044%=      5-min Rain = 0
KSC1 251611Z 12008KT 30/16 A3003 RMK A01 T02980160  RH  043%=      5-min Rain = 0
KSC1 251612Z 11008KT 30/16 A3003 RMK A01 T02950162  RH  044%=      5-min Rain = 0
KSC1 251613Z 13005KT 30/16 A3003 RMK A01 T02960164  RH  045%=      5-min Rain = 0
KSC1 251614Z 12008KT 30/17 A3003 RMK A01 T03000165  RH  044%=      5-min Rain = 0
KSC1 251615Z 15005KT 30/16 A3003 RMK A01 T03020163  RH  043%=      5-min Rain = 0
KSC1 251616Z 14008G15KT 30/17 A3003 RMK A01 T03020165  RH  044%=      5-min Rain = 0
KSC1 251617Z 14012KT 30/16 A3003 RMK A01 T03030164  RH  043%=      5-min Rain = 0
KSC1 251618Z 14009KT 30/16 A3003 RMK A01 T03010162  RH  043%=      5-min Rain = 0
KSC1 251619Z 12008KT 30/16 A3003 RMK A01 T02990163  RH  044%=      5-min Rain = 0
KSC1 251620Z 12013KT 30/16 A3003 RMK A01 T02990163  RH  044%=      5-min Rain = 0
KSC1 251621Z 13012G17KT 30/16 A3003 RMK A01 T03000164  RH  044%=      5-min Rain = 0
KSC1 251622Z 15011KT 30/16 A3003 RMK A01 T03030164  RH  043%=      5-min Rain = 0
KSC1 251623Z 16006KT 30/16 A3003 RMK A01 T03030163  RH  043%=      5-min Rain = 0
KSC1 251624Z 15006KT 30/17 A3003 RMK A01 T03020166  RH  044%=      5-min Rain = 0
KSC1 251625Z 14008KT 31/17 A3003 RMK A01 T03060166  RH  043%=      5-min Rain = 0
KSC1 251626Z 12009KT 31/16 A3003 RMK A01 T03070164  RH  042%=      5-min Rain = 0
KSC1 251627Z 15010KT 31/17 A3003 RMK A01 T03050165  RH  043%=      5-min Rain = 0
KSC1 251628Z 13009KT 30/17 A3003 RMK A01 T03030165  RH  043%=      5-min Rain = 0
KSC1 251629Z 13012KT 30/17 A3003 RMK A01 T03040165  RH  043%=      5-min Rain = 0
KSC1 251630Z 12009KT 30/16 A3003 RMK A01 T03010163  RH  043%=      5-min Rain = 0
KSC1 251631Z 13011KT 30/16 A3003 RMK A01 T03000164  RH  044%=      5-min Rain = 0
KSC1 251632Z 14008G13KT 30/16 A3003 RMK A01 T02980163  RH  044%=      5-min Rain = 0
KSC1 251633Z 16007KT 30/16 A3003 RMK A01 T02970164  RH  045%=      5-min Rain = 0
KSC1 251634Z 15009KT 30/17 A3003 RMK A01 T02990166  RH  045%=      5-min Rain = 0
KSC1 251635Z 15006KT 30/16 A3003 RMK A01 T03010164  RH  044%=      5-min Rain = 0
KSC1 251636Z 16010KT 30/17 A3003 RMK A01 T03010166  RH  044%=      5-min Rain = 0
KSC1 251637Z 13007KT 31/17 A3003 RMK A01 T03050167  RH  044%=      5-min Rain = 0
KSC1 251638Z 14008KT 31/17 A3003 RMK A01 T03060168  RH  044%=      5-min Rain = 0
KSC1 251639Z 14009KT 31/17 A3003 RMK A01 T03060165  RH  043%=      5-min Rain = 0
KSC1 251640Z 14009KT 30/17 A3003 RMK A01 T03040165  RH  043%=      5-min Rain = 0
KSC1 251641Z 15006KT 30/16 A3003 RMK A01 T03020164  RH  043%=      5-min Rain = 0
KSC1 251642Z 13008KT 30/17 A3003 RMK A01 T03020165  RH  044%=      5-min Rain = 0
KSC1 251643Z 12009KT 30/17 A3003 RMK A01 T03010165  RH  044%=      5-min Rain = 0
KSC1 251644Z 13008G13KT 30/17 A3003 RMK A01 T03020167  RH  044%=      5-min Rain = 0
KSC1 251645Z 17010KT 31/17 A3003 RMK A01 T03050168  RH  044%=      5-min Rain = 0
KSC1 251646Z 15008KT 31/17 A3003 RMK A01 T03060166  RH  043%=      5-min Rain = 0
KSC1 251647Z 11008KT 31/16 A3003 RMK A01 T03060164  RH  042%=      5-min Rain = 0
KSC1 251648Z 12011G16KT 30/16 A3003 RMK A01 T03030164  RH  043%=      5-min Rain = 0
KSC1 251649Z 13009G15KT 30/16 A3003 RMK A01 T03020163  RH  043%=      5-min Rain = 0
KSC1 251650Z 16011KT 30/17 A3003 RMK A01 T03020165  RH  044%=      5-min Rain = 0
KSC1 251651Z 14007KT 30/16 A3003 RMK A01 T03020162  RH  043%=      5-min Rain = 0
KSC1 251652Z 13006KT 30/17 A3003 RMK A01 T03040165  RH  043%=      5-min Rain = 0
KSC1 251653Z 15007G12KT 31/16 A3003 RMK A01 T03060163  RH  042%=      5-min Rain = 0
KSC1 251654Z 14009KT 31/16 A3003 RMK A01 T03060164  RH  042%=      5-min Rain = 0
KSC1 251655Z 14006KT 31/16 A3003 RMK A01 T03060163  RH  042%=      5-min Rain = 0
KSC1 251656Z 14009G14KT 30/16 A3003 RMK A01 T03040161  RH  042%=      5-min Rain = 0
KSC1 251657Z 12012KT 30/16 A3003 RMK A01 T03020163  RH  043%=      5-min Rain = 0
KSC1 251658Z 13008KT 30/16 A3003 RMK A01 T03030161  RH  042%=      5-min Rain = 0
KSC1 251659Z 13008KT 30/16 A3003 RMK A01 T03000160  RH  043%=      5-min Rain = 0
KSC1 251700Z 15009KT 30/16 A3003 RMK A01 T02990162  RH  044%=      5-min Rain = 0
KSC1 251701Z 17010KT 30/16 A3003 RMK A01 T03010163  RH  043%=      5-min Rain = 0
KSC1 251702Z 14012KT 30/16 A3003 RMK A01 T03020163  RH  043%=      5-min Rain = 0
KSC1 251703Z 15009KT 30/16 A3003 RMK A01 T03020161  RH  042%=      5-min Rain = 0
KSC1 251704Z 14005KT 30/16 A3003 RMK A01 T03010163  RH  043%=      5-min Rain = 0
KSC1 251705Z 14006KT 30/16 A3003 RMK A01 T03040162  RH  042%=      5-min Rain = 0
KSC1 251706Z 17005KT 31/17 A3003 RMK A01 T03070165  RH  043%=      5-min Rain = 0
KSC1 251707Z 18009KT 31/17 A3003 RMK A01 T03110165  RH  041%=      5-min Rain = 0
KSC1 251708Z 16009KT 31/16 A3003 RMK A01 T03100163  RH  041%=      5-min Rain = 0
KSC1 251709Z 17007KT 31/16 A3003 RMK A01 T03080162  RH  041%=      5-min Rain = 0
KSC1 251710Z 18004KT 31/16 A3003 RMK A01 T03060160  RH  042%=      5-min Rain = 0
KSC1 251711Z 13005G14KT 31/16 A3003 RMK A01 T03050163  RH  042%=      5-min Rain = 0
KSC1 251712Z 12008KT 31/17 A3003 RMK A01 T03070169  RH  044%=      5-min Rain = 0
KSC1 251713Z 11009KT 31/17 A3003 RMK A01 T03080171  RH  044%=      5-min Rain = 0
KSC1 251714Z 10014KT 31/17 A3003 RMK A01 T03060169  RH  044%=      5-min Rain = 0
KSC1 251715Z 09010KT 30/17 A3003 RMK A01 T03010169  RH  045%=      5-min Rain = 0
KSC1 251716Z 09011KT 30/17 A3003 RMK A01 T02990170  RH  046%=      5-min Rain = 0
KSC1 251717Z 10011KT 30/17 A3003 RMK A01 T02990171  RH  046%=      5-min Rain = 0
KSC1 251718Z 09009KT 30/17 A3003 RMK A01 T03010170  RH  045%=      5-min Rain = 0
KSC1 251719Z 08011KT 30/17 A3003 RMK A01 T03010171  RH  046%=      5-min Rain = 0
KSC1 251720Z 07011KT 30/17 A3003 RMK A01 T03000172  RH  046%=      5-min Rain = 0
KSC1 251721Z 08011KT 30/17 A3003 RMK A01 T02990172  RH  046%=      5-min Rain = 0
KSC1 251722Z 08011KT 30/17 A3003 RMK A01 T02980171  RH  047%=      5-min Rain = 0
KSC1 251723Z 08009KT 30/17 A3003 RMK A01 T02960173  RH  048%=      5-min Rain = 0
KSC1 251724Z 08007KT 30/18 A3003 RMK A01 T02950175  RH  048%=      5-min Rain = 0
KSC1 251725Z 07012KT 30/18 A3003 RMK A01 T02980176  RH  048%=      5-min Rain = 0
KSC1 251726Z 07008KT 30/18 A3003 RMK A01 T02990176  RH  048%=      5-min Rain = 0
KSC1 251727Z 08010G15KT 30/18 A3003 RMK A01 T02980176  RH  048%=      5-min Rain = 0
KSC1 251728Z 09011G16KT 30/18 A3003 RMK A01 T02980175  RH  048%=      5-min Rain = 0
KSC1 251729Z 08009KT 30/17 A3003 RMK A01 T02990174  RH  047%=      5-min Rain = 0
KSC1 251730Z 10010KT 30/17 A3003 RMK A01 T02980173  RH  047%=      5-min Rain = 0
KSC1 251731Z 10011KT 30/17 A3003 RMK A01 T02970174  RH  048%=      5-min Rain = 0
KSC1 251732Z 09010KT 30/18 A3003 RMK A01 T02990176  RH  047%=      5-min Rain = 0
KSC1 251733Z 09011KT 30/18 A3003 RMK A01 T03010175  RH  047%=      5-min Rain = 0
KSC1 251734Z 08008KT 30/17 A3003 RMK A01 T03000173  RH  046%=      5-min Rain = 0
KSC1 251735Z 12008G14KT 30/17 A3003 RMK A01 T02980173  RH  047%=      5-min Rain = 0
KSC1 251736Z 10011KT 30/17 A3003 RMK A01 T03010166  RH  044%=      5-min Rain = 0
KSC1 251737Z 11011KT 31/16 A3003 RMK A01 T03050164  RH  043%=      5-min Rain = 0
KSC1 251738Z 12008KT 31/16 A3003 RMK A01 T03060163  RH  042%=      5-min Rain = 0
KSC1 251739Z 11007KT 31/17 A3003 RMK A01 T03060166  RH  043%=      5-min Rain = 0
KSC1 251740Z 14006KT 31/17 A3003 RMK A01 T03090165  RH  042%=      5-min Rain = 0
KSC1 251741Z 18006KT 31/16 A3003 RMK A01 T03100163  RH  041%=      5-min Rain = 0
KSC1 251742Z 18007KT 31/16 A3003 RMK A01 T03090162  RH  041%=      5-min Rain = 0
KSC1 251743Z 17005KT 31/16 A3002 RMK A01 T03060161  RH  042%=      5-min Rain = 0
KSC1 251744Z 12008KT 31/17 A3003 RMK A01 T03060166  RH  043%=      5-min Rain = 0
KSC1 251745Z 11008KT 31/17 A3003 RMK A01 T03090167  RH  043%=      5-min Rain = 0
KSC1 251746Z 08007KT 31/17 A3002 RMK A01 T03090170  RH  043%=      5-min Rain = 0
KSC1 251747Z 11010KT 31/17 A3003 RMK A01 T03110169  RH  043%=      5-min Rain = 0
KSC1 251748Z 12009KT 31/17 A3003 RMK A01 T03120168  RH  042%=      5-min Rain = 0
KSC1 251749Z 13008KT 31/16 A3003 RMK A01 T03130163  RH  040%=      5-min Rain = 0
KSC1 251750Z 16008KT 31/16 A3003 RMK A01 T03130164  RH  041%=      5-min Rain = 0
KSC1 251751Z 16008KT 31/17 A3002 RMK A01 T03140166  RH  041%=      5-min Rain = 0
KSC1 251752Z 17006KT 32/16 A3002 RMK A01 T03160164  RH  040%=      5-min Rain = 0
KSC1 251753Z 14005KT 31/16 A3002 RMK A01 T03140162  RH  040%=      5-min Rain = 0
KSC1 251754Z 11006KT 31/16 A3003 RMK A01 T03110164  RH  041%=      5-min Rain = 0
KSC1 251755Z 13011KT 31/17 A3003 RMK A01 T03100167  RH  042%=      5-min Rain = 0
KSC1 251756Z 12009G15KT 31/17 A3003 RMK A01 T03100168  RH  042%=      5-min Rain = 0
KSC1 251757Z 12008KT 31/17 A3003 RMK A01 T03120168  RH  042%=      5-min Rain = 0
KSC1 251758Z 13008KT 31/17 A3002 RMK A01 T03130167  RH  041%=      5-min Rain = 0
KSC1 251759Z 14011KT 31/17 A3003 RMK A01 T03120168  RH  042%=      5-min Rain = 0
KSC1 251800Z 14006KT 31/17 A3003 RMK A01 T03110167  RH  042%=      5-min Rain = 0
KSC1 251801Z 11008G14KT 31/17 A3002 RMK A01 T03120168  RH  042%=      5-min Rain = 0
KSC1 251802Z 13010KT 31/17 A3002 RMK A01 T03140168  RH  041%=      5-min Rain = 0
KSC1 251803Z 15014KT 32/17 A3002 RMK A01 T03150167  RH  041%=      5-min Rain = 0
KSC1 251804Z 16011KT 31/17 A3002 RMK A01 T03140166  RH  041%=      5-min Rain = 0
KSC1 251805Z 15012KT 31/17 A3003 RMK A01 T03140166  RH  041%=      5-min Rain = 0
KSC1 251806Z 14010KT 31/17 A3003 RMK A01 T03130165  RH  041%=      5-min Rain = 0
KSC1 251807Z 13007G13KT 31/16 A3002 RMK A01 T03100164  RH  041%=      5-min Rain = 0
KSC1 251808Z 13008KT 31/17 A3002 RMK A01 T03080166  RH  042%=      5-min Rain = 0
KSC1 251809Z 15009KT 31/17 A3002 RMK A01 T03100167  RH  042%=      5-min Rain = 0
KSC1 251810Z 14011KT 31/17 A3002 RMK A01 T03120169  RH  042%=      5-min Rain = 0
KSC1 251811Z 12009KT 31/17 A3002 RMK A01 T03130169  RH  042%=      5-min Rain = 0
KSC1 251812Z 11007G13KT 31/17 A3002 RMK A01 T03130169  RH  042%=      5-min Rain = 0
KSC1 251813Z 10011KT 31/17 A3002 RMK A01 T03140170  RH  042%=      5-min Rain = 0
KSC1 251814Z 13012KT 32/17 A3002 RMK A01 T03150169  RH  042%=      5-min Rain = 0
KSC1 251815Z 12013KT 31/17 A3002 RMK A01 T03140170  RH  042%=      5-min Rain = 0
KSC1 251816Z 13013KT 31/17 A3002 RMK A01 T03140168  RH  041%=      5-min Rain = 0
KSC1 251817Z 14009KT 32/17 A3002 RMK A01 T03150166  RH  041%=      5-min Rain = 0
KSC1 251818Z 11010KT 32/17 A3002 RMK A01 T03150167  RH  041%=      5-min Rain = 0
KSC1 251819Z 10011KT 32/17 A3002 RMK A01 T03160167  RH  041%=      5-min Rain = 0
KSC1 251820Z 11009KT 32/17 A3002 RMK A01 T03170166  RH  040%=      5-min Rain = 0
KSC1 251821Z 11008KT 32/17 A3002 RMK A01 T03170167  RH  041%=      5-min Rain = 0
KSC1 251822Z 11011KT 32/17 A3002 RMK A01 T03180167  RH  041%=      5-min Rain = 0
KSC1 251823Z 12010KT 32/17 A3002 RMK A01 T03190169  RH  041%=      5-min Rain = 0
KSC1 251824Z 13008KT 32/17 A3002 RMK A01 T03200167  RH  040%=      5-min Rain = 0
KSC1 251825Z 11012G17KT 32/17 A3002 RMK A01 T03160166  RH  041%=      5-min Rain = 0
KSC1 251826Z 10009KT 31/17 A3002 RMK A01 T03140168  RH  041%=      5-min Rain = 0
KSC1 251827Z 11015KT 32/17 A3002 RMK A01 T03170168  RH  041%=      5-min Rain = 0
KSC1 251828Z 11014KT 32/17 A3002 RMK A01 T03180169  RH  041%=      5-min Rain = 0
KSC1 251829Z 12011KT 32/17 A3002 RMK A01 T03180170  RH  041%=      5-min Rain = 0
KSC1 251830Z 13009KT 32/17 A3002 RMK A01 T03190168  RH  041%=      5-min Rain = 0
KSC1 251831Z 10007KT 32/17 A3002 RMK A01 T03180171  RH  041%=      5-min Rain = 0
KSC1 251832Z 10008G13KT 32/17 A3002 RMK A01 T03180170  RH  041%=      5-min Rain = 0
KSC1 251833Z 08011KT 32/17 A3002 RMK A01 T03180172  RH  042%=      5-min Rain = 0
KSC1 251834Z 09010KT 32/17 A3002 RMK A01 T03180169  RH  041%=      5-min Rain = 0
KSC1 251835Z 08008KT 31/17 A3002 RMK A01 T03140169  RH  042%=      5-min Rain = 0
KSC1 251836Z 08009KT 31/17 A3002 RMK A01 T03120170  RH  043%=      5-min Rain = 0
KSC1 251837Z 09008KT 32/17 A3001 RMK A01 T03150173  RH  043%=      5-min Rain = 0
KSC1 251838Z 09011KT 32/17 A3001 RMK A01 T03210174  RH  042%=      5-min Rain = 0
KSC1 251839Z 13011KT 32/17 A3002 RMK A01 T03240170  RH  040%=      5-min Rain = 0
KSC1 251840Z 13008KT 32/17 A3001 RMK A01 T03210169  RH  040%=      5-min Rain = 0
KSC1 251841Z 13007KT 32/17 A3001 RMK A01 T03200170  RH  041%=      5-min Rain = 0
KSC1 251842Z 14012KT 32/17 A3001 RMK A01 T03200167  RH  040%=      5-min Rain = 0
KSC1 251843Z 14011KT 32/16 A3001 RMK A01 T03210164  RH  039%=      5-min Rain = 0
KSC1 251844Z 14013KT 32/16 A3002 RMK A01 T03200163  RH  039%=      5-min Rain = 0
KSC1 251845Z 15011KT 32/16 A3002 RMK A01 T03200163  RH  039%=      5-min Rain = 0
KSC1 251846Z 16009KT 32/16 A3001 RMK A01 T03200163  RH  039%=      5-min Rain = 0
KSC1 251847Z 17006KT 32/16 A3001 RMK A01 T03200164  RH  039%=      5-min Rain = 0
KSC1 251848Z 15007KT 32/17 A3001 RMK A01 T03220166  RH  039%=      5-min Rain = 0
KSC1 251849Z 10008KT 32/17 A3001 RMK A01 T03230168  RH  040%=      5-min Rain = 0
KSC1 251850Z 11009KT 33/17 A3001 RMK A01 T03260168  RH  039%=      5-min Rain = 0
KSC1 251851Z 11009KT 32/17 A3001 RMK A01 T03240166  RH  039%=      5-min Rain = 0
KSC1 251852Z 09010KT 32/17 A3001 RMK A01 T03200168  RH  040%=      5-min Rain = 0
KSC1 251853Z 11007KT 32/17 A3001 RMK A01 T03170168  RH  041%=      5-min Rain = 0
KSC1 251854Z 12007KT 32/17 A3001 RMK A01 T03180170  RH  041%=      5-min Rain = 0
KSC1 251855Z 15006KT 32/17 A3001 RMK A01 T03210167  RH  040%=      5-min Rain = 0
KSC1 251856Z 11009KT 32/17 A3001 RMK A01 T03220165  RH  039%=      5-min Rain = 0
KSC1 251857Z 11006KT 32/16 A3001 RMK A01 T03210163  RH  039%=      5-min Rain = 0
KSC1 251858Z 14007KT 32/17 A3001 RMK A01 T03200165  RH  039%=      5-min Rain = 0
KSC1 251859Z 14010KT 32/17 A3001 RMK A01 T03230166  RH  039%=      5-min Rain = 0
KSC1 251900Z 15008KT 33/17 A3001 RMK A01 T03250166  RH  039%=      5-min Rain = 0
KSC1 251901Z 14010KT 33/17 A3001 RMK A01 T03300167  RH  038%=      5-min Rain = 0
KSC1 251902Z 16011KT 33/16 A3001 RMK A01 T03310162  RH  036%=      5-min Rain = 0
KSC1 251903Z 14011KT 33/16 A3001 RMK A01 T03280161  RH  037%=      5-min Rain = 0
KSC1 251904Z 13008KT 33/16 A3001 RMK A01 T03250159  RH  037%=      5-min Rain = 0
KSC1 251905Z 13006KT 32/16 A3001 RMK A01 T03230160  RH  037%=      5-min Rain = 0
KSC1 251906Z 15006KT 33/16 A3001 RMK A01 T03260161  RH  037%=      5-min Rain = 0
KSC1 251907Z 15008G16KT 33/16 A3001 RMK A01 T03280161  RH  037%=      5-min Rain = 0
KSC1 251908Z 13010KT 33/17 A3001 RMK A01 T03280167  RH  038%=      5-min Rain = 0
KSC1 251909Z 14011KT 33/17 A30 RMK A01 T03290168  RH  038%=      5-min Rain = 0
KSC1 251910Z 13012KT 33/17 A3001 RMK A01 T03280168  RH  038%=      5-min Rain = 0
KSC1 251911Z 12009KT 33/17 A3001 RMK A01 T03270169  RH  039%=      5-min Rain = 0
KSC1 251912Z 12012KT 33/17 A3001 RMK A01 T03280170  RH  039%=      5-min Rain = 0
KSC1 251913Z 11008KT 33/17 A3001 RMK A01 T03310172  RH  039%=      5-min Rain = 0
KSC1 251914Z 12013KT 34/17 A3001 RMK A01 T03360170  RH  037%=      5-min Rain = 0
KSC1 251915Z 13009KT 33/17 A30 RMK A01 T03310165  RH  037%=      5-min Rain = 0
KSC1 251916Z 10007KT 33/17 A30 RMK A01 T03250166  RH  038%=      5-min Rain = 0
KSC1 251917Z 10008KT 32/17 A30 RMK A01 T03240167  RH  039%=      5-min Rain = 0
KSC1 251918Z 14011KT 33/17 A30 RMK A01 T03250170  RH  040%=      5-min Rain = 0
KSC1 251919Z 13012G18KT 33/17 A30 RMK A01 T03270169  RH  039%=      5-min Rain = 0
KSC1 251920Z 13013KT 33/17 A30 RMK A01 T03270170  RH  039%=      5-min Rain = 0
KSC1 251921Z 12015KT 33/17 A30 RMK A01 T03300168  RH  038%=      5-min Rain = 0
KSC1 251922Z 14011KT 33/17 A30 RMK A01 T03300170  RH  038%=      5-min Rain = 0
KSC1 251923Z 14011KT 33/17 A30 RMK A01 T03310168  RH  038%=      5-min Rain = 0
KSC1 251924Z 13007KT 33/17 A30 RMK A01 T03280166  RH  038%=      5-min Rain = 0
KSC1 251925Z 11010G18KT 33/17 A30 RMK A01 T03260169  RH  039%=      5-min Rain = 0
KSC1 251926Z 12011KT 33/17 A30 RMK A01 T03300170  RH  038%=      5-min Rain = 0
KSC1 251927Z 12010KT 33/17 A30 RMK A01 T03300166  RH  037%=      5-min Rain = 0
KSC1 251928Z 11007KT 33/17 A30 RMK A01 T03280169  RH  039%=      5-min Rain = 0
KSC1 251929Z 10012KT 33/17 A30 RMK A01 T03300169  RH  038%=      5-min Rain = 0
KSC1 251930Z 11011KT 33/17 A30 RMK A01 T03290168  RH  038%=      5-min Rain = 0
KSC1 251931Z 12007G12KT 33/17 A30 RMK A01 T03270167  RH  038%=      5-min Rain = 0
KSC1 251932Z 12008G13KT 33/17 A30 RMK A01 T03290172  RH  039%=      5-min Rain = 0
KSC1 251933Z 10011KT 33/17 A30 RMK A01 T03340170  RH  038%=      5-min Rain = 0
KSC1 251934Z 11016KT 33/17 A30 RMK A01 T03330166  RH  037%=      5-min Rain = 0
KSC1 251935Z 12012KT 33/17 A30 RMK A01 T03280165  RH  038%=      5-min Rain = 0
KSC1 251936Z 13013KT 33/17 A30 RMK A01 T03270167  RH  038%=      5-min Rain = 0
KSC1 251937Z 13010KT 33/17 A30 RMK A01 T03280167  RH  038%=      5-min Rain = 0
KSC1 251938Z 13007KT 33/17 A30 RMK A01 T03270168  RH  039%=      5-min Rain = 0
KSC1 251939Z 15010G15KT 33/17 A30 RMK A01 T03290169  RH  038%=      5-min Rain = 0
KSC1 251940Z 13008KT 33/17 A30 RMK A01 T03290168  RH  038%=      5-min Rain = 0
KSC1 251941Z 12013KT 33/17 A30 RMK A01 T03290170  RH  039%=      5-min Rain = 0
KSC1 251942Z 12013KT 33/17 A30 RMK A01 T03300167  RH  038%=      5-min Rain = 0
KSC1 251943Z 11012KT 33/17 A30 RMK A01 T03280168  RH  038%=      5-min Rain = 0
KSC1 251944Z 11012KT 33/17 A30 RMK A01 T03280167  RH  038%=      5-min Rain = 0
KSC1 251945Z 10008KT 33/17 A30 RMK A01 T03270166  RH  038%=      5-min Rain = 0
KSC1 251946Z 11009KT 33/17 A30 RMK A01 T03270168  RH  039%=      5-min Rain = 0
KSC1 251947Z 12009G15KT 33/17 A30 RMK A01 T03270169  RH  039%=      5-min Rain = 0
KSC1 251948Z 12012KT 33/17 A30 RMK A01 T03290169  RH  038%=      5-min Rain = 0
KSC1 251949Z 12011KT 33/17 A30 RMK A01 T03310167  RH  038%=      5-min Rain = 0
KSC1 251950Z 11011KT 33/17 A30 RMK A01 T03300168  RH  038%=      5-min Rain = 0
KSC1 251951Z 12010KT 33/17 A30 RMK A01 T03300168  RH  038%=      5-min Rain = 0
KSC1 251952Z 14009KT 33/17 A30 RMK A01 T03310168  RH  038%=      5-min Rain = 0
KSC1 251953Z 13008KT 33/17 A30 RMK A01 T03330169  RH  038%=      5-min Rain = 0
KSC1 251954Z 12009KT 33/17 A30 RMK A01 T03330169  RH  037%=      5-min Rain = 0
KSC1 251955Z 11009G15KT 33/17 A30 RMK A01 T03340169  RH  037%=      5-min Rain = 0
KSC1 251956Z 12011KT 33/17 A30 RMK A01 T03330167  RH  037%=      5-min Rain = 0
KSC1 251957Z 11009KT 33/17 A30 RMK A01 T03320167  RH  037%=      5-min Rain = 0
KSC1 251958Z 09009KT 33/17 A30 RMK A01 T03310166  RH  037%=      5-min Rain = 0
KSC1 251959Z 10009KT 33/17 A30 RMK A01 T03310168  RH  038%=      5-min Rain = 0
KSC1 252000Z 13010KT 34/17 A30 RMK A01 T03350171  RH  038%=      5-min Rain = 0
KSC1 252001Z 13009G14KT 34/17 A30 RMK A01 T03370169  RH  037%=      5-min Rain = 0
KSC1 252002Z 11011KT 34/17 A30 RMK A01 T03360171  RH  037%=      5-min Rain = 0
KSC1 252003Z 11011KT 34/17 A30 RMK A01 T03360168  RH  037%=      5-min Rain = 0
KSC1 252004Z 11011KT 33/17 A30 RMK A01 T03330167  RH  037%=      5-min Rain = 0
KSC1 252005Z 13007KT 33/17 A30 RMK A01 T03310167  RH  038%=      5-min Rain = 0
KSC1 252006Z 13006KT 33/17 A2999 RMK A01 T03310168  RH  038%=      5-min Rain = 0
KSC1 252007Z 11012KT 33/17 A2999 RMK A01 T03330168  RH  037%=      5-min Rain = 0
KSC1 252008Z 09011KT 33/16 A2999 RMK A01 T03330164  RH  036%=      5-min Rain = 0
KSC1 252009Z 10007KT 33/16 A2999 RMK A01 T03300163  RH  037%=      5-min Rain = 0
KSC1 252010Z 13006KT 33/16 A2999 RMK A01 T03280164  RH  037%=      5-min Rain = 0
KSC1 252011Z 14007KT 33/17 A2999 RMK A01 T03300168  RH  038%=      5-min Rain = 0
KSC1 252012Z 12009G14KT 33/17 A2999 RMK A01 T03340168  RH  037%=      5-min Rain = 0
KSC1 252013Z 11007KT 34/17 A2999 RMK A01 T03350166  RH  036%=      5-min Rain = 0
KSC1 252014Z 10011KT 34/17 A2999 RMK A01 T03380167  RH  036%=      5-min Rain = 0
KSC1 252015Z 10009KT 34/17 A2999 RMK A01 T03370167  RH  036%=      5-min Rain = 0
KSC1 252016Z 10010KT 34/17 A2999 RMK A01 T03360166  RH  036%=      5-min Rain = 0
KSC1 252017Z 10010KT 33/17 A2999 RMK A01 T03340165  RH  036%=      5-min Rain = 0
KSC1 252018Z 11012KT 33/17 A2999 RMK A01 T03330165  RH  037%=      5-min Rain = 0
KSC1 252019Z 10010KT 33/17 A2999 RMK A01 T03330165  RH  037%=      5-min Rain = 0
KSC1 252020Z 11007KT 33/17 A2999 RMK A01 T03340165  RH  036%=      5-min Rain = 0
KSC1 252021Z 14008KT 34/16 A2999 RMK A01 T03360164  RH  036%=      5-min Rain = 0
KSC1 252022Z 14010KT 34/16 A2999 RMK A01 T03350163  RH  036%=      5-min Rain = 0
KSC1 252023Z 13008KT 33/16 A2999 RMK A01 T03340161  RH  036%=      5-min Rain = 0
KSC1 252024Z 12008KT 33/16 A2999 RMK A01 T03340163  RH  036%=      5-min Rain = 0
KSC1 252025Z 11012KT 34/16 A2999 RMK A01 T03370163  RH  035%=      5-min Rain = 0
KSC1 252026Z 11011KT 34/16 A2999 RMK A01 T03360159  RH  035%=      5-min Rain = 0
KSC1 252027Z 09010KT 33/16 A2999 RMK A01 T03330158  RH  035%=      5-min Rain = 0
KSC1 252028Z 09008KT 33/16 A2999 RMK A01 T03310158  RH  035%=      5-min Rain = 0
KSC1 252029Z 11008G15KT 33/16 A2999 RMK A01 T03310160  RH  036%=      5-min Rain = 0
KSC1 252030Z 11011KT 33/16 A2999 RMK A01 T03310163  RH  037%=      5-min Rain = 0
KSC1 252031Z 10012KT 33/16 A2998 RMK A01 T03320164  RH  036%=      5-min Rain = 0
KSC1 252032Z 10009KT 33/16 A2998 RMK A01 T03330164  RH  036%=      5-min Rain = 0
KSC1 252033Z 10008KT 33/16 A2998 RMK A01 T03330164  RH  036%=      5-min Rain = 0
KSC1 252034Z 13010KT 33/17 A2998 RMK A01 T03330165  RH  037%=      5-min Rain = 0
KSC1 252035Z 12012KT 33/16 A2998 RMK A01 T03340164  RH  036%=      5-min Rain = 0
KSC1 252036Z 11009KT 33/16 A2998 RMK A01 T03330163  RH  036%=      5-min Rain = 0
KSC1 252037Z 09012KT 33/17 A2998 RMK A01 T03330165  RH  037%=      5-min Rain = 0
KSC1 252038Z 11008KT 34/17 A2998 RMK A01 T03350165  RH  036%=      5-min Rain = 0
KSC1 252039Z 12009KT 34/16 A2998 RMK A01 T03370164  RH  036%=      5-min Rain = 0
KSC1 252040Z 10009KT 34/16 A2998 RMK A01 T03370163  RH  036%=      5-min Rain = 0
KSC1 252041Z 11010G15KT 34/16 A2998 RMK A01 T03350163  RH  036%=      5-min Rain = 0
KSC1 252042Z 12011KT 33/17 A2998 RMK A01 T03340165  RH  036%=      5-min Rain = 0
KSC1 252043Z 13010KT 34/17 A2998 RMK A01 T03380166  RH  036%=      5-min Rain = 0
KSC1 252044Z 14010KT 34/17 A2998 RMK A01 T03400165  RH  035%=      5-min Rain = 0
KSC1 252045Z 13012KT 34/16 A2998 RMK A01 T03390163  RH  035%=      5-min Rain = 0
KSC1 252046Z 11008KT 33/16 A2998 RMK A01 T03340160  RH  035%=      5-min Rain = 0
KSC1 252047Z 13009KT 33/16 A2998 RMK A01 T03300162  RH  037%=      5-min Rain = 0
KSC1 252048Z 10010KT 33/17 A2998 RMK A01 T03310165  RH  037%=      5-min Rain = 0
KSC1 252049Z 12015KT 33/16 A2998 RMK A01 T03340164  RH  036%=      5-min Rain = 0
KSC1 252050Z 13012KT 34/16 A2998 RMK A01 T03350160  RH  035%=      5-min Rain = 0
KSC1 252051Z 13009KT 33/16 A2998 RMK A01 T03330159  RH  035%=      5-min Rain = 0
KSC1 252052Z 15007G14KT 33/16 A2998 RMK A01 T03330161  RH  036%=      5-min Rain = 0
KSC1 252053Z 16011KT 34/16 A2997 RMK A01 T03360162  RH  035%=      5-min Rain = 0
KSC1 252054Z 14011KT 34/16 A2998 RMK A01 T03370162  RH  035%=      5-min Rain = 0
KSC1 252055Z 15011KT 34/16 A2998 RMK A01 T03380159  RH  034%=      5-min Rain = 0
KSC1 252056Z 15009KT 34/16 A2998 RMK A01 T03360157  RH  034%=      5-min Rain = 0
KSC1 252057Z 14011KT 34/16 A2997 RMK A01 T03350160  RH  035%=      5-min Rain = 0
KSC1 252058Z 14011KT 34/16 A2997 RMK A01 T03360160  RH  035%=      5-min Rain = 0
KSC1 252059Z 16012KT 34/16 A2997 RMK A01 T03360159  RH  035%=      5-min Rain = 0
KSC1 252100Z 16007KT 34/16 A2997 RMK A01 T03370158  RH  034%=      5-min Rain = 0
KSC1 252101Z 14011KT 34/16 A2997 RMK A01 T03390163  RH  035%=      5-min Rain = 0
KSC1 252102Z 12009KT 34/17 A2997 RMK A01 T03390165  RH  035%=      5-min Rain = 0
KSC1 252103Z 12008KT 34/16 A2997 RMK A01 T03370163  RH  035%=      5-min Rain = 0
KSC1 252104Z 12011KT 34/17 A2997 RMK A01 T03360165  RH  036%=      5-min Rain = 0
KSC1 252105Z 13011G16KT 34/17 A2998 RMK A01 T03370167  RH  036%=      5-min Rain = 0
KSC1 252106Z 12011G17KT 34/17 A2997 RMK A01 T03370168  RH  037%=      5-min Rain = 0
KSC1 252107Z 11014KT 34/17 A2997 RMK A01 T03380169  RH  037%=      5-min Rain = 0
KSC1 252108Z 11013KT 34/17 A2997 RMK A01 T03380169  RH  037%=      5-min Rain = 0
KSC1 252109Z 11011KT 34/17 A2997 RMK A01 T03360169  RH  037%=      5-min Rain = 0
KSC1 252110Z 11013KT 34/17 A2997 RMK A01 T03360168  RH  037%=      5-min Rain = 0
KSC1 252111Z 10010KT 34/17 A2997 RMK A01 T03350166  RH  037%=      5-min Rain = 0
KSC1 252112Z 11009KT 34/17 A2997 RMK A01 T03350167  RH  037%=      5-min Rain = 0
KSC1 252113Z 09010KT 34/17 A2997 RMK A01 T03360165  RH  036%=      5-min Rain = 0
KSC1 252114Z 10014KT 34/16 A2997 RMK A01 T03380162  RH  035%=      5-min Rain = 0
KSC1 252115Z 12012KT 34/16 A2997 RMK A01 T03370162  RH  035%=      5-min Rain = 0
KSC1 252116Z 13008KT 34/16 A2997 RMK A01 T03390161  RH  035%=      5-min Rain = 0
KSC1 252117Z 16009KT 34/16 A2997 RMK A01 T03410160  RH  034%=      5-min Rain = 0
KSC1 252118Z 16010KT 34/16 A2997 RMK A01 T03420159  RH  034%=      5-min Rain = 0
KSC1 252119Z 12010KT 34/16 A2997 RMK A01 T03420161  RH  034%=      5-min Rain = 0
KSC1 252120Z 14009KT 34/16 A2997 RMK A01 T03400163  RH  035%=      5-min Rain = 0
KSC1 252121Z 11013G18KT 34/16 A2997 RMK A01 T03400164  RH  035%=      5-min Rain = 0
KSC1 252122Z 11014KT 34/16 A2997 RMK A01 T03400161  RH  034%=      5-min Rain = 0
KSC1 252123Z 12010KT 34/16 A2997 RMK A01 T03380159  RH  034%=      5-min Rain = 0
KSC1 252124Z 11011G17KT 34/16 A2997 RMK A01 T03360157  RH  034%=      5-min Rain = 0
KSC1 252125Z 12008KT 34/16 A2997 RMK A01 T03380158  RH  034%=      5-min Rain = 0
KSC1 252126Z 10013KT 34/16 A2997 RMK A01 T03400158  RH  034%=      5-min Rain = 0
KSC1 252127Z 10011KT 34/16 A2997 RMK A01 T03410155  RH  033%=      5-min Rain = 0
KSC1 252128Z 11012KT 34/15 A2997 RMK A01 T03380154  RH  033%=      5-min Rain = 0
KSC1 252129Z 11010KT 34/15 A2997 RMK A01 T03350153  RH  033%=      5-min Rain = 0
KSC1 252130Z 12010KT 34/16 A2997 RMK A01 T03370156  RH  034%=      5-min Rain = 0
KSC1 252131Z 13012KT 34/15 A2997 RMK A01 T03410154  RH  033%=      5-min Rain = 0
KSC1 252132Z 14009KT 34/15 A2997 RMK A01 T03400151  RH  032%=      5-min Rain = 0
KSC1 252133Z 14005KT 34/15 A2996 RMK A01 T03400151  RH  032%=      5-min Rain = 0
KSC1 252134Z 11007KT 34/16 A2996 RMK A01 T03390155  RH  033%=      5-min Rain = 0
KSC1 252135Z 12008KT 34/16 A2996 RMK A01 T03410159  RH  034%=      5-min Rain = 0
KSC1 252136Z 11008KT 34/16 A2997 RMK A01 T03420160  RH  034%=      5-min Rain = 0
KSC1 252137Z 10011KT 34/16 A2997 RMK A01 T03420158  RH  033%=      5-min Rain = 0
KSC1 252138Z 12011KT 34/16 A2996 RMK A01 T03420156  RH  033%=      5-min Rain = 0
KSC1 252139Z 11012G17KT 34/16 A2996 RMK A01 T03420156  RH  033%=      5-min Rain = 0
KSC1 252140Z 11012KT 34/16 A2996 RMK A01 T03400157  RH  033%=      5-min Rain = 0
KSC1 252141Z 10010KT 34/16 A2996 RMK A01 T03410160  RH  034%=      5-min Rain = 0
KSC1 252142Z 13013KT 34/16 A2997 RMK A01 T03420159  RH  034%=      5-min Rain = 0
KSC1 252143Z 15011KT 34/16 A2997 RMK A01 T03410156  RH  033%=      5-min Rain = 0
KSC1 252144Z 15010KT 34/16 A2996 RMK A01 T03400156  RH  033%=      5-min Rain = 0
KSC1 252145Z 13007KT 34/16 A2996 RMK A01 T03390155  RH  033%=      5-min Rain = 0
KSC1 252146Z 12010KT 34/15 A2996 RMK A01 T03410151  RH  032%=      5-min Rain = 0
KSC1 252147Z 14009KT 34/15 A2996 RMK A01 T03410151  RH  032%=      5-min Rain = 0
KSC1 252148Z 14009G15KT 34/15 A2996 RMK A01 T03410149  RH  032%=      5-min Rain = 0
KSC1 252149Z 13013KT 34/16 A2997 RMK A01 T03410156  RH  033%=      5-min Rain = 0
KSC1 252150Z 13012KT 34/15 A2996 RMK A01 T03390152  RH  033%=      5-min Rain = 0
KSC1 252151Z 12007KT 34/15 A2996 RMK A01 T03380153  RH  033%=      5-min Rain = 0
KSC1 252152Z 14009KT 34/16 A2996 RMK A01 T03380157  RH  034%=      5-min Rain = 0
KSC1 252153Z 16011KT 34/15 A2996 RMK A01 T03400153  RH  033%=      5-min Rain = 0
KSC1 252154Z 15011KT 34/15 A2996 RMK A01 T03420152  RH  032%=      5-min Rain = 0
KSC1 252155Z 12015KT 34/16 A2996 RMK A01 T03410155  RH  033%=      5-min Rain = 0
KSC1 252156Z 13010G16KT 34/16 A2996 RMK A01 T03430158  RH  033%=      5-min Rain = 0
KSC1 252157Z 14007KT 34/16 A2996 RMK A01 T03440159  RH  033%=      5-min Rain = 0
KSC1 252158Z 14011G16KT 35/16 A2996 RMK A01 T03450160  RH  033%=      5-min Rain = 0
KSC1 252159Z 13009G16KT 34/16 A2996 RMK A01 T03440161  RH  034%=      5-min Rain = 0
KSC1 252200Z 12014G19KT 34/16 A2997 RMK A01 T03430157  RH  033%=      5-min Rain = 0
KSC1 252201Z 11011KT 34/15 A2996 RMK A01 T03410153  RH  032%=      5-min Rain = 0
KSC1 252202Z 12009KT 34/15 A2996 RMK A01 T03390152  RH  033%=      5-min Rain = 0
KSC1 252203Z 13009KT 34/16 A2996 RMK A01 T03380156  RH  034%=      5-min Rain = 0
KSC1 252204Z 13008KT 34/15 A2996 RMK A01 T03390153  RH  033%=      5-min Rain = 0
KSC1 252205Z 12007KT 34/16 A2996 RMK A01 T03380156  RH  034%=      5-min Rain = 0
KSC1 252206Z 10013G19KT 34/16 A2996 RMK A01 T03400160  RH  034%=      5-min Rain = 0
KSC1 252207Z 12014G19KT 34/16 A2996 RMK A01 T03400159  RH  034%=      5-min Rain = 0
KSC1 252208Z 12017KT 34/16 A2996 RMK A01 T03400158  RH  034%=      5-min Rain = 0
KSC1 252209Z 11012KT 34/16 A2996 RMK A01 T03390163  RH  035%=      5-min Rain = 0
KSC1 252210Z 13013KT 34/16 A2996 RMK A01 T03400163  RH  035%=      5-min Rain = 0
KSC1 252211Z 13011KT 34/16 A2996 RMK A01 T03390162  RH  035%=      5-min Rain = 0
KSC1 252212Z 10012G17KT 34/16 A2996 RMK A01 T03390163  RH  035%=      5-min Rain = 0
KSC1 252213Z 10010KT 34/16 A2996 RMK A01 T03410163  RH  034%=      5-min Rain = 0
KSC1 252214Z 10009KT 34/16 A2996 RMK A01 T03440163  RH  034%=      5-min Rain = 0
KSC1 252215Z 07009KT 35/16 A2996 RMK A01 T03450162  RH  034%=      5-min Rain = 0
KSC1 252216Z 09012G20KT 34/16 A2996 RMK A01 T03430163  RH  034%=      5-min Rain = 0
KSC1 252217Z 10013G19KT 34/16 A2996 RMK A01 T03440159  RH  033%=      5-min Rain = 0
KSC1 252218Z 11015KT 34/16 A2996 RMK A01 T03420158  RH  033%=      5-min Rain = 0
KSC1 252219Z 11014KT 34/16 A2996 RMK A01 T03400157  RH  033%=      5-min Rain = 0
KSC1 252220Z 13011KT 34/16 A2996 RMK A01 T03370161  RH  035%=      5-min Rain = 0
KSC1 252221Z 12011KT 34/16 A2996 RMK A01 T03380162  RH  035%=      5-min Rain = 0
KSC1 252222Z 09013G20KT 34/16 A2996 RMK A01 T03380161  RH  035%=      5-min Rain = 0
KSC1 252223Z 10014KT 34/16 A2996 RMK A01 T03380157  RH  034%=      5-min Rain = 0
KSC1 252224Z 11013G21KT 34/16 A2996 RMK A01 T03380159  RH  034%=      5-min Rain = 0
KSC1 252225Z 11016KT 34/16 A2996 RMK A01 T03390161  RH  035%=      5-min Rain = 0
KSC1 252226Z 11015KT 34/17 A2996 RMK A01 T03380165  RH  036%=      5-min Rain = 0
KSC1 252227Z 10010KT 34/17 A2996 RMK A01 T03360168  RH  037%=      5-min Rain = 0
KSC1 252228Z 10006KT 34/17 A2996 RMK A01 T03350168  RH  037%=      5-min Rain = 0
KSC1 252229Z 11013G19KT 34/17 A2996 RMK A01 T03350169  RH  037%=      5-min Rain = 0
KSC1 252230Z 13013G19KT 34/17 A2996 RMK A01 T03390166  RH  036%=      5-min Rain = 0
KSC1 252231Z 15012KT 34/16 A2996 RMK A01 T03370163  RH  035%=      5-min Rain = 0
KSC1 252232Z 13010KT 33/16 A2996 RMK A01 T03320163  RH  036%=      5-min Rain = 0
KSC1 252233Z 13011KT 33/16 A2996 RMK A01 T03290163  RH  037%=      5-min Rain = 0
KSC1 252234Z 14011KT 33/16 A2996 RMK A01 T03260163  RH  038%=      5-min Rain = 0
KSC1 252235Z 14010KT 33/16 A2996 RMK A01 T03260162  RH  037%=      5-min Rain = 0
KSC1 252236Z 12008KT 33/16 A2996 RMK A01 T03280163  RH  037%=      5-min Rain = 0
KSC1 252237Z 12013G19KT 33/17 A2996 RMK A01 T03320166  RH  037%=      5-min Rain = 0
KSC1 252238Z 11014KT 34/17 A2996 RMK A01 T03350167  RH  037%=      5-min Rain = 0
KSC1 252239Z 11014KT 34/17 A2996 RMK A01 T03350166  RH  036%=      5-min Rain = 0
KSC1 252240Z 11012KT 33/17 A2996 RMK A01 T03320165  RH  037%=      5-min Rain = 0
KSC1 252241Z 11012KT 33/17 A2996 RMK A01 T03280165  RH  038%=      5-min Rain = 0
KSC1 252242Z 11013KT 33/16 A2996 RMK A01 T03260164  RH  038%=      5-min Rain = 0
KSC1 252243Z 11013KT 33/17 A2996 RMK A01 T03270167  RH  038%=      5-min Rain = 0
KSC1 252244Z 11012KT 33/17 A2996 RMK A01 T03310171  RH  038%=      5-min Rain = 0
KSC1 252245Z 11014G19KT 33/17 A2996 RMK A01 T03340172  RH  038%=      5-min Rain = 0
KSC1 252246Z 10016KT 34/17 A2996 RMK A01 T03350171  RH  038%=      5-min Rain = 0
KSC1 252247Z 11013KT 33/17 A2996 RMK A01 T03330171  RH  038%=      5-min Rain = 0
KSC1 252248Z 11014KT 33/17 A2996 RMK A01 T03320171  RH  038%=      5-min Rain = 0
KSC1 252249Z 11014KT 33/17 A2996 RMK A01 T03320169  RH  038%=      5-min Rain = 0
KSC1 252250Z 10013KT 33/17 A2996 RMK A01 T03320170  RH  038%=      5-min Rain = 0
KSC1 252251Z 11013KT 33/17 A2996 RMK A01 T03320171  RH  038%=      5-min Rain = 0
KSC1 252252Z 11016G21KT 33/17 A2996 RMK A01 T03330173  RH  038%=      5-min Rain = 0
KSC1 252253Z 12016KT 33/17 A2996 RMK A01 T03330173  RH  039%=      5-min Rain = 0
KSC1 252254Z 11017G22KT 33/17 A2996 RMK A01 T03310173  RH  039%=      5-min Rain = 0
KSC1 252255Z 12012KT 33/17 A2996 RMK A01 T03300174  RH  039%=      5-min Rain = 0
KSC1 252256Z 10012KT 33/17 A2996 RMK A01 T03300174  RH  039%=      5-min Rain = 0
KSC1 252257Z 11013KT 33/17 A2996 RMK A01 T03310174  RH  039%=      5-min Rain = 0
KSC1 252258Z 11015KT 33/17 A2996 RMK A01 T03320169  RH  038%=      5-min Rain = 0
KSC1 252259Z 11014KT 33/17 A2996 RMK A01 T03330166  RH  037%=      5-min Rain = 0
KSC1 252300Z 11013G18KT 33/17 A2996 RMK A01 T03340166  RH  037%=      5-min Rain = 0
KSC1 252301Z 11013KT 33/16 A2996 RMK A01 T03340164  RH  036%=      5-min Rain = 0
KSC1 252302Z 11011KT 33/16 A2995 RMK A01 T03320163  RH  036%=      5-min Rain = 0
KSC1 252303Z 12014KT 33/16 A2995 RMK A01 T03330164  RH  036%=      5-min Rain = 0
KSC1 252304Z 12014KT 33/17 A2995 RMK A01 T03320166  RH  037%=      5-min Rain = 0
KSC1 252305Z 14012G17KT 33/17 A2995 RMK A01 T03320166  RH  037%=      5-min Rain = 0
KSC1 252306Z 14010KT 33/17 A2995 RMK A01 T03320166  RH  037%=      5-min Rain = 0
KSC1 252307Z 11015KT 33/17 A2995 RMK A01 T03330167  RH  037%=      5-min Rain = 0
KSC1 252308Z 11014KT 33/17 A2996 RMK A01 T03330167  RH  037%=      5-min Rain = 0
KSC1 252309Z 10015KT 33/17 A2995 RMK A01 T03320167  RH  037%=      5-min Rain = 0
KSC1 252310Z 09013KT 33/17 A2995 RMK A01 T03310166  RH  037%=      5-min Rain = 0
KSC1 252311Z 09014KT 33/17 A2995 RMK A01 T03290166  RH  038%=      5-min Rain = 0
KSC1 252312Z 09014G20KT 33/17 A2995 RMK A01 T03290167  RH  038%=      5-min Rain = 0
KSC1 252313Z 11015KT 33/17 A2995 RMK A01 T03290165  RH  037%=      5-min Rain = 0
KSC1 252314Z 12013KT 33/16 A2995 RMK A01 T03310161  RH  036%=      5-min Rain = 0
KSC1 252315Z 13011KT 33/16 A2995 RMK A01 T03310160  RH  036%=      5-min Rain = 0
KSC1 252316Z 12011KT 33/16 A2995 RMK A01 T03310159  RH  036%=      5-min Rain = 0
KSC1 252317Z 13013G18KT 33/16 A2995 RMK A01 T03300159  RH  036%=      5-min Rain = 0
KSC1 252318Z 12015G20KT 33/16 A2995 RMK A01 T03300159  RH  036%=      5-min Rain = 0
KSC1 252319Z 12015KT 33/16 A2995 RMK A01 T03290157  RH  036%=      5-min Rain = 0
KSC1 252320Z 11017KT 33/16 A2995 RMK A01 T03290157  RH  035%=      5-min Rain = 0
KSC1 252321Z 12014KT 33/16 A2995 RMK A01 T03280157  RH  036%=      5-min Rain = 0
KSC1 252322Z 12011KT 33/16 A2995 RMK A01 T03270157  RH  036%=      5-min Rain = 0
KSC1 252323Z 12008KT 33/16 A2995 RMK A01 T03280158  RH  036%=      5-min Rain = 0
KSC1 252324Z 13012KT 33/16 A2995 RMK A01 T03300161  RH  036%=      5-min Rain = 0
KSC1 252325Z 12011KT 33/16 A2995 RMK A01 T03300161  RH  036%=      5-min Rain = 0
KSC1 252326Z 13011KT 33/16 A2995 RMK A01 T03290161  RH  036%=      5-min Rain = 0
KSC1 252327Z 12011KT 33/16 A2995 RMK A01 T03300164  RH  037%=      5-min Rain = 0
KSC1 252328Z 13010KT 33/16 A2995 RMK A01 T03330164  RH  036%=      5-min Rain = 0
KSC1 252329Z 13012KT 33/16 A2995 RMK A01 T03330157  RH  035%=      5-min Rain = 0
KSC1 252330Z 12012KT 33/15 A2995 RMK A01 T03330154  RH  034%=      5-min Rain = 0
KSC1 252331Z 13013KT 33/15 A2995 RMK A01 T03310154  RH  035%=      5-min Rain = 0
KSC1 252332Z 12014KT 33/15 A2995 RMK A01 T03300153  RH  034%=      5-min Rain = 0
KSC1 252333Z 13011KT 33/15 A2995 RMK A01 T03300154  RH  035%=      5-min Rain = 0
KSC1 252334Z 13011KT 33/16 A2995 RMK A01 T03300158  RH  036%=      5-min Rain = 0
KSC1 252335Z 13011KT 33/16 A2995 RMK A01 T03290159  RH  036%=      5-min Rain = 0
KSC1 252336Z 12010KT 33/16 A2995 RMK A01 T03280161  RH  037%=      5-min Rain = 0
KSC1 252337Z 12011KT 33/16 A2995 RMK A01 T03280163  RH  037%=      5-min Rain = 0
KSC1 252338Z 13012KT 33/16 A2995 RMK A01 T03290161  RH  036%=      5-min Rain = 0
KSC1 252339Z 13010KT 33/16 A2995 RMK A01 T03300161  RH  036%=      5-min Rain = 0
KSC1 252340Z 14015KT 33/16 A2995 RMK A01 T03310160  RH  036%=      5-min Rain = 0
KSC1 252341Z 14014KT 33/16 A2995 RMK A01 T03290158  RH  036%=      5-min Rain = 0
KSC1 252342Z 12010KT 33/16 A2995 RMK A01 T03270157  RH  036%=      5-min Rain = 0
KSC1 252343Z 12007KT 33/16 A2995 RMK A01 T03270157  RH  036%=      5-min Rain = 0
KSC1 252344Z 13014G19KT 33/16 A2995 RMK A01 T03280157  RH  036%=      5-min Rain = 0
KSC1 252345Z 13011KT 33/16 A2995 RMK A01 T03280157  RH  036%=      5-min Rain = 0
KSC1 252346Z 13014KT 33/16 A2995 RMK A01 T03280156  RH  036%=      5-min Rain = 0
KSC1 252347Z 14012KT 33/15 A2995 RMK A01 T03270154  RH  035%=      5-min Rain = 0
KSC1 252348Z 13012KT 33/16 A2995 RMK A01 T03260155  RH  036%=      5-min Rain = 0
KSC1 252349Z 12013KT 33/16 A2995 RMK A01 T03250156  RH  036%=      5-min Rain = 0
KSC1 252350Z 11011KT 33/16 A2995 RMK A01 T03260156  RH  036%=      5-min Rain = 0
KSC1 252351Z 11015KT 33/15 A2995 RMK A01 T03270153  RH  035%=      5-min Rain = 0
KSC1 252352Z 11013KT 33/15 A2995 RMK A01 T03270151  RH  035%=      5-min Rain = 0
KSC1 252353Z 11012KT 33/15 A2995 RMK A01 T03260150  RH  035%=      5-min Rain = 0
KSC1 252354Z 11014KT 33/15 A2995 RMK A01 T03250150  RH  035%=      5-min Rain = 0
KSC1 252355Z 11013KT 33/16 A2995 RMK A01 T03250155  RH  036%=      5-min Rain = 0
KSC1 252356Z 11013KT 33/16 A2995 RMK A01 T03250158  RH  037%=      5-min Rain = 0
KSC1 252357Z 11013KT 32/16 A2995 RMK A01 T03240160  RH  037%=      5-min Rain = 0
KSC1 252358Z 12012KT 32/16 A2995 RMK A01 T03240161  RH  037%=      5-min Rain = 0
KSC1 252359Z 13015KT 32/16 A2995 RMK A01 T03240159  RH  037%=      5-min Rain = 0
KSC1 260000Z 13013G18KT 32/16 A2994 RMK A01 T03240157  RH  037%=      5-min Rain = 0
KSC1 260001Z 13013KT 32/16 A2994 RMK A01 T03240157  RH  037%=      5-min Rain = 0
KSC1 260002Z 11014KT 32/16 A2994 RMK A01 T03240156  RH  037%=      5-min Rain = 0
KSC1 260003Z 12012KT 32/16 A2995 RMK A01 T03240157  RH  037%=      5-min Rain = 0
KSC1 260004Z 12011G16KT 32/16 A2994 RMK A01 T03230158  RH  037%=      5-min Rain = 0
KSC1 260005Z 12012KT 32/16 A2995 RMK A01 T03230159  RH  037%=      5-min Rain = 0
KSC1 260006Z 13013KT 32/16 A2995 RMK A01 T03230158  RH  037%=      5-min Rain = 0
KSC1 260007Z 12011G16KT 32/16 A2994 RMK A01 T03230158  RH  037%=      5-min Rain = 0
KSC1 260008Z 13012G17KT 32/16 A2994 RMK A01 T03240158  RH  037%=      5-min Rain = 0
KSC1 260009Z 13014KT 33/16 A2995 RMK A01 T03250156  RH  036%=      5-min Rain = 0
KSC1 260010Z 12014KT 33/15 A2995 RMK A01 T03250154  RH  036%=      5-min Rain = 0
KSC1 260011Z 12013KT 32/15 A2995 RMK A01 T03230152  RH  036%=      5-min Rain = 0
KSC1 260012Z 11013KT 32/15 A2995 RMK A01 T03230152  RH  036%=      5-min Rain = 0
KSC1 260013Z 12013KT 32/15 A2995 RMK A01 T03220152  RH  036%=      5-min Rain = 0
KSC1 260014Z 12013KT 32/15 A2995 RMK A01 T03220151  RH  036%=      5-min Rain = 0
KSC1 260015Z 13013KT 32/15 A2995 RMK A01 T03220151  RH  036%=      5-min Rain = 0
KSC1 260016Z 12013KT 32/15 A2995 RMK A01 T03220150  RH  035%=      5-min Rain = 0
KSC1 260017Z 13010KT 32/15 A2995 RMK A01 T03210149  RH  035%=      5-min Rain = 0
KSC1 260018Z 11011KT 32/15 A2995 RMK A01 T03210151  RH  036%=      5-min Rain = 0
KSC1 260019Z 11011KT 32/15 A2995 RMK A01 T03220152  RH  036%=      5-min Rain = 0
KSC1 260020Z 11015KT 32/15 A2995 RMK A01 T03220154  RH  036%=      5-min Rain = 0
KSC1 260021Z 11014KT 32/15 A2995 RMK A01 T03220152  RH  036%=      5-min Rain = 0
KSC1 260022Z 11012KT 32/15 A2995 RMK A01 T03210152  RH  036%=      5-min Rain = 0
KSC1 260023Z 11015KT 32/15 A2995 RMK A01 T03210151  RH  036%=      5-min Rain = 0
KSC1 260024Z 12013KT 32/15 A2995 RMK A01 T03210151  RH  036%=      5-min Rain = 0
KSC1 260025Z 11013KT 32/15 A2995 RMK A01 T03210151  RH  036%=      5-min Rain = 0
KSC1 260026Z 11013G18KT 32/15 A2995 RMK A01 T03200152  RH  036%=      5-min Rain = 0
KSC1 260027Z 12015KT 32/15 A2995 RMK A01 T03190154  RH  037%=      5-min Rain = 0
KSC1 260028Z 11013KT 32/16 A2995 RMK A01 T03180155  RH  037%=      5-min Rain = 0
KSC1 260029Z 11014KT 32/16 A2995 RMK A01 T03180157  RH  038%=      5-min Rain = 0
KSC1 260030Z 12013G18KT 32/16 A2995 RMK A01 T03170158  RH  038%=      5-min Rain = 0
KSC1 260031Z 11015KT 32/16 A2995 RMK A01 T03170157  RH  038%=      5-min Rain = 0
KSC1 260032Z 11014KT 32/16 A2995 RMK A01 T03170157  RH  038%=      5-min Rain = 0
KSC1 260033Z 11013G18KT 32/16 A2995 RMK A01 T03160157  RH  038%=      5-min Rain = 0
KSC1 260034Z 12012G18KT 32/16 A2995 RMK A01 T03160157  RH  038%=      5-min Rain = 0
KSC1 260035Z 12014KT 32/16 A2995 RMK A01 T03160157  RH  038%=      5-min Rain = 0
KSC1 260036Z 12014KT 32/16 A2995 RMK A01 T03160157  RH  038%=      5-min Rain = 0
KSC1 260037Z 12014KT 32/16 A2995 RMK A01 T03150157  RH  038%=      5-min Rain = 0
KSC1 260038Z 12013KT 32/16 A2996 RMK A01 T03160158  RH  039%=      5-min Rain = 0
KSC1 260039Z 12009KT 32/16 A2996 RMK A01 T03150158  RH  039%=      5-min Rain = 0
KSC1 260040Z 11011G16KT 32/16 A2996 RMK A01 T03150160  RH  039%=      5-min Rain = 0
KSC1 260041Z 12011KT 32/16 A2996 RMK A01 T03150160  RH  039%=      5-min Rain = 0
KSC1 260042Z 13011G16KT 32/16 A2996 RMK A01 T03150159  RH  039%=      5-min Rain = 0
KSC1 260043Z 12013KT 32/16 A2996 RMK A01 T03150160  RH  039%=      5-min Rain = 0
KSC1 260044Z 13013KT 32/16 A2996 RMK A01 T03150159  RH  039%=      5-min Rain = 0
KSC1 260045Z 12013KT 32/16 A2996 RMK A01 T03150157  RH  039%=      5-min Rain = 0
KSC1 260046Z 13013G20KT 32/16 A2996 RMK A01 T03150156  RH  038%=      5-min Rain = 0
KSC1 260047Z 12014KT 31/15 A2996 RMK A01 T03140153  RH  038%=      5-min Rain = 0
KSC1 260048Z 12014KT 31/15 A2996 RMK A01 T03140153  RH  038%=      5-min Rain = 0
KSC1 260049Z 12014KT 31/15 A2996 RMK A01 T03130153  RH  038%=      5-min Rain = 0
KSC1 260050Z 12014KT 31/15 A2996 RMK A01 T03130153  RH  038%=      5-min Rain = 0
KSC1 260051Z 13013KT 31/15 A2996 RMK A01 T03130154  RH  038%=      5-min Rain = 0
KSC1 260052Z 13015KT 31/15 A2996 RMK A01 T03120154  RH  038%=      5-min Rain = 0
KSC1 260053Z 13013KT 31/15 A2996 RMK A01 T03120152  RH  038%=      5-min Rain = 0
KSC1 260054Z 13012KT 31/15 A2996 RMK A01 T03110152  RH  038%=      5-min Rain = 0
KSC1 260055Z 12012KT 31/15 A2996 RMK A01 T03110154  RH  039%=      5-min Rain = 0
KSC1 260056Z 12011G16KT 31/16 A2996 RMK A01 T03110156  RH  039%=      5-min Rain = 0
KSC1 260057Z 12014KT 31/16 A2996 RMK A01 T03100156  RH  039%=      5-min Rain = 0
KSC1 260058Z 12010KT 31/16 A2996 RMK A01 T03100157  RH  040%=      5-min Rain = 0
KSC1 260059Z 13011G16KT 31/16 A2996 RMK A01 T03100158  RH  040%=      5-min Rain = 0
KSC1 260100Z 12011KT 31/16 A2996 RMK A01 T03100158  RH  040%=      5-min Rain = 0
KSC1 260101Z 12011KT 31/16 A2996 RMK A01 T03100158  RH  040%=      5-min Rain = 0
KSC1 260102Z 12010G16KT 31/16 A2996 RMK A01 T03100159  RH  040%=      5-min Rain = 0
KSC1 260103Z 12012KT 31/16 A2996 RMK A01 T03090158  RH  040%=      5-min Rain = 0
KSC1 260104Z 12012KT 31/16 A2996 RMK A01 T03090157  RH  040%=      5-min Rain = 0
KSC1 260105Z 12012KT 31/16 A2996 RMK A01 T03090156  RH  040%=      5-min Rain = 0
KSC1 260106Z 13010KT 31/16 A2996 RMK A01 T03090156  RH  040%=      5-min Rain = 0
KSC1 260107Z 13010KT 31/16 A2996 RMK A01 T03080156  RH  040%=      5-min Rain = 0
KSC1 260108Z 14009KT 31/16 A2996 RMK A01 T03080156  RH  040%=      5-min Rain = 0
KSC1 260109Z 12009KT 31/16 A2997 RMK A01 T03080156  RH  040%=      5-min Rain = 0
KSC1 260110Z 12009KT 31/16 A2997 RMK A01 T03080157  RH  040%=      5-min Rain = 0
KSC1 260111Z 12012KT 31/16 A2997 RMK A01 T03070157  RH  040%=      5-min Rain = 0
KSC1 260112Z 12014KT 31/16 A2997 RMK A01 T03070157  RH  040%=      5-min Rain = 0
KSC1 260113Z 12014KT 31/16 A2997 RMK A01 T03060156  RH  040%=      5-min Rain = 0
KSC1 260114Z 12015KT 31/16 A2997 RMK A01 T03060156  RH  040%=      5-min Rain = 0
KSC1 260115Z 12015KT 31/16 A2997 RMK A01 T03060156  RH  040%=      5-min Rain = 0
KSC1 260116Z 12011KT 31/16 A2997 RMK A01 T03060156  RH  040%=      5-min Rain = 0
KSC1 260117Z 13012KT 31/16 A2997 RMK A01 T03050156  RH  040%=      5-min Rain = 0
KSC1 260118Z 12009KT 31/16 A2997 RMK A01 T03050156  RH  041%=      5-min Rain = 0
KSC1 260119Z 12011KT 30/16 A2997 RMK A01 T03040156  RH  041%=      5-min Rain = 0
KSC1 260120Z 12013KT 30/16 A2997 RMK A01 T03040156  RH  041%=      5-min Rain = 0
KSC1 260121Z 12013KT 30/16 A2997 RMK A01 T03040156  RH  041%=      5-min Rain = 0
KSC1 260122Z 13013KT 30/16 A2997 RMK A01 T03030156  RH  041%=      5-min Rain = 0
KSC1 260123Z 12013KT 30/16 A2997 RMK A01 T03030156  RH  041%=      5-min Rain = 0
KSC1 260124Z 12012KT 30/16 A2997 RMK A01 T03030156  RH  041%=      5-min Rain = 0
KSC1 260125Z 12013KT 30/16 A2997 RMK A01 T03020156  RH  041%=      5-min Rain = 0
KSC1 260126Z 12012KT 30/16 A2997 RMK A01 T03020156  RH  041%=      5-min Rain = 0
KSC1 260127Z 12011KT 30/16 A2997 RMK A01 T03000156  RH  042%=      5-min Rain = 0
KSC1 260128Z 12012KT 30/16 A2997 RMK A01 T03000157  RH  042%=      5-min Rain = 0
KSC1 260129Z 12011KT 30/16 A2997 RMK A01 T03000157  RH  042%=      5-min Rain = 0
KSC1 260130Z 11010KT 30/16 A2997 RMK A01 T02990157  RH  042%=      5-min Rain = 0
KSC1 260131Z 11013KT 30/16 A2997 RMK A01 T02990157  RH  042%=      5-min Rain = 0
KSC1 260132Z 12012KT 30/16 A2997 RMK A01 T02990157  RH  042%=      5-min Rain = 0
KSC1 260133Z 12011KT 30/16 A2997 RMK A01 T02980157  RH  042%=      5-min Rain = 0
KSC1 260134Z 12010KT 30/16 A2997 RMK A01 T02980158  RH  043%=      5-min Rain = 0
KSC1 260135Z 12010KT 30/16 A2997 RMK A01 T02970158  RH  043%=      5-min Rain = 0
KSC1 260136Z 12012KT 30/16 A2997 RMK A01 T02960157  RH  043%=      5-min Rain = 0
KSC1 260137Z 11011KT 30/16 A2997 RMK A01 T02960158  RH  043%=      5-min Rain = 0
KSC1 260138Z 11010KT 30/16 A2997 RMK A01 T02950158  RH  043%=      5-min Rain = 0
KSC1 260139Z 11012KT 30/16 A2997 RMK A01 T02950158  RH  044%=      5-min Rain = 0
KSC1 260140Z 12008KT 29/16 A2997 RMK A01 T02940158  RH  044%=      5-min Rain = 0
KSC1 260141Z 11009KT 29/16 A2997 RMK A01 T02930158  RH  044%=      5-min Rain = 0
KSC1 260142Z 12007KT 29/16 A2997 RMK A01 T02930158  RH  044%=      5-min Rain = 0
KSC1 260143Z 12010KT 29/16 A2997 RMK A01 T02910158  RH  044%=      5-min Rain = 0
KSC1 260144Z 11009KT 29/16 A2997 RMK A01 T02910158  RH  044%=      5-min Rain = 0
KSC1 260145Z 12010KT 29/16 A2997 RMK A01 T02910158  RH  044%=      5-min Rain = 0
KSC1 260146Z 12011KT 29/16 A2997 RMK A01 T02910158  RH  044%=      5-min Rain = 0
KSC1 260147Z 11010KT 29/16 A2997 RMK A01 T02910158  RH  044%=      5-min Rain = 0
KSC1 260148Z 12008KT 29/16 A2997 RMK A01 T02910158  RH  044%=      5-min Rain = 0
KSC1 260149Z 12009KT 29/16 A2997 RMK A01 T02910158  RH  045%=      5-min Rain = 0
KSC1 260150Z 12008KT 29/16 A2997 RMK A01 T02900158  RH  045%=      5-min Rain = 0
KSC1 260151Z 11010KT 29/16 A2997 RMK A01 T02890158  RH  045%=      5-min Rain = 0
KSC1 260152Z 12009KT 29/16 A2998 RMK A01 T02880158  RH  045%=      5-min Rain = 0
KSC1 260153Z 12008KT 29/16 A2998 RMK A01 T02880158  RH  045%=      5-min Rain = 0
KSC1 260154Z 12009KT 29/16 A2998 RMK A01 T02880158  RH  045%=      5-min Rain = 0
KSC1 260155Z 12008KT 29/16 A2998 RMK A01 T02870158  RH  045%=      5-min Rain = 0
KSC1 260156Z 12008KT 29/16 A2998 RMK A01 T02870158  RH  046%=      5-min Rain = 0
KSC1 260157Z 12008KT 29/16 A2998 RMK A01 T02870158  RH  046%=      5-min Rain = 0
KSC1 260158Z 12009KT 29/16 A2998 RMK A01 T02860158  RH  046%=      5-min Rain = 0
KSC1 260159Z 12009KT 29/16 A2998 RMK A01 T02860158  RH  046%=      5-min Rain = 0
KSC1 260200Z 11009KT 29/16 A2998 RMK A01 T02860159  RH  046%=      5-min Rain = 0
KSC1 260201Z 12008KT 29/16 A2998 RMK A01 T02850158  RH  046%=      5-min Rain = 0
KSC1 260202Z 12009KT 29/16 A2998 RMK A01 T02850159  RH  046%=      5-min Rain = 0
KSC1 260203Z 12008KT 29/16 A2998 RMK A01 T02860159  RH  046%=      5-min Rain = 0
KSC1 260204Z 12009KT 29/16 A2998 RMK A01 T02850159  RH  046%=      5-min Rain = 0
KSC1 260205Z 11010KT 29/16 A2998 RMK A01 T02850159  RH  047%=      5-min Rain = 0
KSC1 260206Z 12008KT 29/16 A2998 RMK A01 T02850160  RH  047%=      5-min Rain = 0
KSC1 260207Z 11008KT 28/16 A2998 RMK A01 T02840160  RH  047%=      5-min Rain = 0
KSC1 260208Z 12009KT 28/16 A2998 RMK A01 T02840160  RH  047%=      5-min Rain = 0
KSC1 260209Z 12011KT 28/16 A2998 RMK A01 T02840160  RH  047%=      5-min Rain = 0
KSC1 260210Z 12012KT 28/16 A2998 RMK A01 T02840160  RH  047%=      5-min Rain = 0
KSC1 260211Z 12008KT 28/16 A2998 RMK A01 T02840160  RH  047%=      5-min Rain = 0
KSC1 260212Z 11009KT 28/16 A2998 RMK A01 T02840160  RH  047%=      5-min Rain = 0
KSC1 260213Z 12009KT 28/16 A2999 RMK A01 T02840160  RH  047%=      5-min Rain = 0
KSC1 260214Z 11008KT 28/16 A2999 RMK A01 T02830160  RH  047%=      5-min Rain = 0
KSC1 260215Z 11007KT 28/16 A2999 RMK A01 T02820160  RH  047%=      5-min Rain = 0
KSC1 260216Z 12007KT 28/16 A2999 RMK A01 T02820160  RH  048%=      5-min Rain = 0
KSC1 260217Z 12010KT 28/16 A2999 RMK A01 T02810160  RH  048%=      5-min Rain = 0
KSC1 260218Z 11008KT 28/16 A2999 RMK A01 T02810160  RH  048%=      5-min Rain = 0
KSC1 260219Z 11008KT 28/16 A2999 RMK A01 T02810160  RH  048%=      5-min Rain = 0
KSC1 260220Z 11009KT 28/16 A2999 RMK A01 T02810160  RH  048%=      5-min Rain = 0
KSC1 260221Z 11010KT 28/16 A2999 RMK A01 T02810160  RH  048%=      5-min Rain = 0
KSC1 260222Z 12010KT 28/16 A2999 RMK A01 T02800159  RH  048%=      5-min Rain = 0
KSC1 260223Z 11008KT 28/16 A2999 RMK A01 T02810159  RH  047%=      5-min Rain = 0
KSC1 260224Z 12007KT 28/16 A2999 RMK A01 T02800159  RH  048%=      5-min Rain = 0
KSC1 260225Z 11010KT 28/16 A2999 RMK A01 T02800158  RH  048%=      5-min Rain = 0
KSC1 260226Z 11009KT 28/16 A2999 RMK A01 T02790158  RH  048%=      5-min Rain = 0
KSC1 260227Z 12011KT 28/16 A2999 RMK A01 T02800158  RH  048%=      5-min Rain = 0
KSC1 260228Z 11009KT 28/16 A2999 RMK A01 T02800158  RH  047%=      5-min Rain = 0
KSC1 260229Z 11008KT 28/16 A2999 RMK A01 T02800158  RH  047%=      5-min Rain = 0
KSC1 260230Z 11010KT 28/16 A2999 RMK A01 T02790158  RH  048%=      5-min Rain = 0
KSC1 260231Z 11007KT 28/16 A2999 RMK A01 T02780158  RH  048%=      5-min Rain = 0
KSC1 260232Z 11008KT 28/16 A2999 RMK A01 T02770158  RH  048%=      5-min Rain = 0
KSC1 260233Z 11009KT 28/16 A2999 RMK A01 T02770158  RH  048%=      5-min Rain = 0
KSC1 260234Z 11008KT 28/16 A2999 RMK A01 T02760158  RH  049%=      5-min Rain = 0
KSC1 260235Z 11008KT 28/16 A2999 RMK A01 T02750158  RH  049%=      5-min Rain = 0
KSC1 260236Z 10007KT 27/16 A2999 RMK A01 T02740158  RH  049%=      5-min Rain = 0
KSC1 260237Z 11007KT 27/16 A2999 RMK A01 T02730157  RH  049%=      5-min Rain = 0
KSC1 260238Z 11008KT 27/16 A2999 RMK A01 T02730158  RH  049%=      5-min Rain = 0
KSC1 260239Z 10007KT 27/16 A2999 RMK A01 T02730158  RH  049%=      5-min Rain = 0
KSC1 260240Z 10008KT 27/16 A2999 RMK A01 T02720158  RH  050%=      5-min Rain = 0
KSC1 260241Z 10008KT 27/16 A2999 RMK A01 T02720158  RH  050%=      5-min Rain = 0
KSC1 260242Z 10007KT 27/16 A2999 RMK A01 T02710157  RH  050%=      5-min Rain = 0
KSC1 260243Z 10008KT 27/16 A30 RMK A01 T02710157  RH  050%=      5-min Rain = 0
KSC1 260244Z 10006KT 27/16 A30 RMK A01 T02710158  RH  050%=      5-min Rain = 0
KSC1 260245Z 11008KT 27/16 A30 RMK A01 T02700157  RH  050%=      5-min Rain = 0
KSC1 260246Z 10008KT 27/16 A30 RMK A01 T02700157  RH  050%=      5-min Rain = 0
KSC1 260247Z 10006KT 27/16 A30 RMK A01 T02700157  RH  050%=      5-min Rain = 0
KSC1 260248Z 11005KT 27/16 A30 RMK A01 T02690157  RH  050%=      5-min Rain = 0
KSC1 260249Z 11007KT 27/16 A30 RMK A01 T02680157  RH  051%=      5-min Rain = 0
KSC1 260250Z 11006KT 27/16 A30 RMK A01 T02670157  RH  051%=      5-min Rain = 0
KSC1 260251Z 10006KT 27/16 A30 RMK A01 T02670157  RH  051%=      5-min Rain = 0
KSC1 260252Z 11008KT 27/16 A30 RMK A01 T02660157  RH  051%=      5-min Rain = 0
KSC1 260253Z 10007KT 27/16 A30 RMK A01 T02650157  RH  051%=      5-min Rain = 0
KSC1 260254Z 10007KT 27/16 A30 RMK A01 T02660157  RH  051%=      5-min Rain = 0
KSC1 260255Z 11007KT 27/16 A30 RMK A01 T02660158  RH  051%=      5-min Rain = 0
KSC1 260256Z 11007KT 27/16 A30 RMK A01 T02660158  RH  051%=      5-min Rain = 0
KSC1 260257Z 11006KT 27/16 A30 RMK A01 T02660158  RH  051%=      5-min Rain = 0
KSC1 260258Z 11007KT 27/16 A3001 RMK A01 T02660158  RH  051%=      5-min Rain = 0
KSC1 260259Z 11007KT 27/16 A3001 RMK A01 T02660158  RH  051%=      5-min Rain = 0
KSC1 260300Z 11006KT 27/16 A3001 RMK A01 T02660158  RH  051%=      5-min Rain = 0
KSC1 260301Z 11007KT 27/16 A3001 RMK A01 T02660158  RH  052%=      5-min Rain = 0
KSC1 260302Z 11006KT 27/16 A3001 RMK A01 T02650158  RH  052%=      5-min Rain = 0
KSC1 260303Z 11008KT 27/16 A3001 RMK A01 T02650158  RH  052%=      5-min Rain = 0
KSC1 260304Z 11007KT 27/16 A3001 RMK A01 T02650158  RH  052%=      5-min Rain = 0
KSC1 260305Z 11007KT 27/16 A3001 RMK A01 T02650158  RH  052%=      5-min Rain = 0
KSC1 260306Z 11008KT 27/16 A3001 RMK A01 T02650158  RH  052%=      5-min Rain = 0
KSC1 260307Z 11006KT 27/16 A3002 RMK A01 T02650158  RH  052%=      5-min Rain = 0
KSC1 260308Z 10006KT 27/16 A3002 RMK A01 T02660159  RH  052%=      5-min Rain = 0
KSC1 260309Z 11008KT 27/16 A3002 RMK A01 T02650159  RH  052%=      5-min Rain = 0
KSC1 260310Z 10007KT 27/16 A3002 RMK A01 T02650159  RH  052%=      5-min Rain = 0
KSC1 260311Z 11008KT 27/16 A3002 RMK A01 T02650159  RH  052%=      5-min Rain = 0
KSC1 260312Z 10007KT 27/16 A3002 RMK A01 T02650159  RH  052%=      5-min Rain = 0
KSC1 260313Z 11007KT 27/16 A3002 RMK A01 T02650159  RH  052%=      5-min Rain = 0
KSC1 260314Z 11007KT 26/16 A3002 RMK A01 T02640159  RH  052%=      5-min Rain = 0
KSC1 260315Z 11007KT 26/16 A3002 RMK A01 T02630159  RH  053%=      5-min Rain = 0
KSC1 260316Z 11006KT 26/16 A3002 RMK A01 T02630159  RH  053%=      5-min Rain = 0
KSC1 260317Z 11006KT 26/16 A3002 RMK A01 T02620159  RH  053%=      5-min Rain = 0
KSC1 260318Z 11006KT 26/16 A3003 RMK A01 T02610159  RH  053%=      5-min Rain = 0
KSC1 260319Z 10005KT 26/16 A3003 RMK A01 T02600159  RH  054%=      5-min Rain = 0
KSC1 260320Z 10005KT 26/16 A3003 RMK A01 T02590159  RH  054%=      5-min Rain = 0
KSC1 260321Z 09004KT 26/16 A3003 RMK A01 T02580159  RH  054%=      5-min Rain = 0
KSC1 260322Z 09005KT 26/16 A3003 RMK A01 T02560159  RH  055%=      5-min Rain = 0
KSC1 260323Z 09005KT 25/16 A3003 RMK A01 T02540159  RH  056%=      5-min Rain = 0
KSC1 260324Z 10006KT 25/16 A3003 RMK A01 T02530159  RH  056%=      5-min Rain = 0
KSC1 260325Z 10006KT 25/16 A3003 RMK A01 T02520160  RH  057%=      5-min Rain = 0
KSC1 260326Z 10006KT 25/16 A3004 RMK A01 T02510160  RH  057%=      5-min Rain = 0
KSC1 260327Z 10006KT 25/16 A3004 RMK A01 T02500160  RH  057%=      5-min Rain = 0
KSC1 260328Z 10006KT 25/16 A3004 RMK A01 T02490161  RH  058%=      5-min Rain = 0
KSC1 260329Z 10007KT 25/16 A3004 RMK A01 T02490161  RH  058%=      5-min Rain = 0
KSC1 260330Z 10007KT 25/16 A3004 RMK A01 T02490161  RH  058%=      5-min Rain = 0
KSC1 260331Z 10007KT 25/16 A3004 RMK A01 T02490161  RH  058%=      5-min Rain = 0
KSC1 260332Z 10006KT 25/16 A3004 RMK A01 T02490161  RH  058%=      5-min Rain = 0
KSC1 260333Z 10007KT 25/16 A3004 RMK A01 T02500162  RH  058%=      5-min Rain = 0
KSC1 260334Z 10005KT 25/16 A3004 RMK A01 T02500162  RH  058%=      5-min Rain = 0
KSC1 260335Z 09005KT 25/16 A3004 RMK A01 T02500162  RH  058%=      5-min Rain = 0
KSC1 260336Z 10006KT 25/16 A3005 RMK A01 T02490162  RH  058%=      5-min Rain = 0
KSC1 260337Z 10007KT 25/16 A3005 RMK A01 T02490162  RH  059%=      5-min Rain = 0
KSC1 260338Z 11007KT 25/16 A3005 RMK A01 T02490163  RH  059%=      5-min Rain = 0
KSC1 260339Z 11006KT 25/16 A3005 RMK A01 T02490163  RH  059%=      5-min Rain = 0
KSC1 260340Z 11006KT 25/16 A3005 RMK A01 T02490163  RH  059%=      5-min Rain = 0
KSC1 260341Z 11006KT 25/16 A3005 RMK A01 T02500163  RH  059%=      5-min Rain = 0
KSC1 260342Z 11005KT 25/16 A3005 RMK A01 T02500163  RH  059%=      5-min Rain = 0
KSC1 260343Z 12005KT 25/16 A3005 RMK A01 T02490164  RH  059%=      5-min Rain = 0
KSC1 260344Z 12006KT 25/16 A3005 RMK A01 T02490163  RH  059%=      5-min Rain = 0
KSC1 260345Z 11006KT 25/16 A3005 RMK A01 T02490164  RH  059%=      5-min Rain = 0
KSC1 260346Z 11006KT 25/16 A3005 RMK A01 T02490164  RH  059%=      5-min Rain = 0
KSC1 260347Z 11007KT 25/16 A3005 RMK A01 T02490164  RH  059%=      5-min Rain = 0
KSC1 260348Z 11007KT 25/16 A3005 RMK A01 T02490164  RH  059%=      5-min Rain = 0
KSC1 260349Z 11007KT 25/16 A3005 RMK A01 T02490164  RH  059%=      5-min Rain = 0
KSC1 260350Z 11007KT 25/16 A3005 RMK A01 T02490164  RH  059%=      5-min Rain = 0
KSC1 260351Z 11006KT 25/16 A3006 RMK A01 T02490164  RH  059%=      5-min Rain = 0
KSC1 260352Z 11006KT 25/16 A3006 RMK A01 T02490164  RH  059%=      5-min Rain = 0
KSC1 260353Z 11007KT 25/16 A3006 RMK A01 T02490164  RH  059%=      5-min Rain = 0
KSC1 260354Z 11007KT 25/17 A3006 RMK A01 T02490165  RH  059%=      5-min Rain = 0
KSC1 260355Z 12007KT 25/16 A3005 RMK A01 T02490164  RH  059%=      5-min Rain = 0
KSC1 260356Z 12007KT 25/17 A3006 RMK A01 T02500165  RH  059%=      5-min Rain = 0
KSC1 260357Z 12007KT 25/17 A3006 RMK A01 T02500165  RH  059%=      5-min Rain = 0
KSC1 260358Z 12006KT 25/17 A3006 RMK A01 T02510165  RH  059%=      5-min Rain = 0
KSC1 260359Z 13006KT 25/17 A3006 RMK A01 T02510165  RH  059%=      5-min Rain = 0
KSC1 260400Z 13005KT 25/17 A3006 RMK A01 T02510165  RH  059%=      5-min Rain = 0
KSC1 260401Z 14005KT 25/17 A3006 RMK A01 T02520166  RH  059%=      5-min Rain = 0
KSC1 260402Z 14005KT 25/17 A3006 RMK A01 T02520166  RH  059%=      5-min Rain = 0
KSC1 260403Z 13005KT 25/17 A3006 RMK A01 T02530166  RH  059%=      5-min Rain = 0
KSC1 260404Z 14005KT 25/17 A3006 RMK A01 T02530166  RH  059%=      5-min Rain = 0
KSC1 260405Z 13005KT 25/17 A3006 RMK A01 T02530166  RH  059%=      5-min Rain = 0
KSC1 260406Z 13005KT 25/17 A3006 RMK A01 T02530166  RH  058%=      5-min Rain = 0
KSC1 260407Z 13005KT 25/17 A3006 RMK A01 T02530166  RH  059%=      5-min Rain = 0
KSC1 260408Z 13006KT 25/17 A3006 RMK A01 T02520166  RH  059%=      5-min Rain = 0
KSC1 260409Z 13006KT 25/17 A3006 RMK A01 T02510165  RH  059%=      5-min Rain = 0
KSC1 260410Z 13005KT 25/17 A3006 RMK A01 T02510165  RH  059%=      5-min Rain = 0
KSC1 260411Z 14006KT 25/17 A3006 RMK A01 T02510165  RH  059%=      5-min Rain = 0
KSC1 260412Z 13006KT 25/17 A3006 RMK A01 T02510165  RH  059%=      5-min Rain = 0
KSC1 260413Z 14006KT 25/17 A3006 RMK A01 T02500165  RH  059%=      5-min Rain = 0
KSC1 260414Z 14005KT 25/17 A3006 RMK A01 T02510165  RH  059%=      5-min Rain = 0
KSC1 260415Z 14006KT 25/17 A3006 RMK A01 T02510166  RH  059%=      5-min Rain = 0
KSC1 260416Z 15005KT 25/17 A3006 RMK A01 T02510166  RH  059%=      5-min Rain = 0
KSC1 260417Z 14007KT 25/17 A3006 RMK A01 T02510166  RH  059%=      5-min Rain = 0
KSC1 260418Z 14007KT 25/17 A3006 RMK A01 T02510166  RH  059%=      5-min Rain = 0
KSC1 260419Z 14006KT 25/17 A3006 RMK A01 T02510166  RH  059%=      5-min Rain = 0
KSC1 260420Z 14007KT 25/17 A3006 RMK A01 T02510166  RH  059%=      5-min Rain = 0
KSC1 260421Z 13009KT 25/17 A3006 RMK A01 T02520166  RH  059%=      5-min Rain = 0
KSC1 260422Z 14009KT 25/17 A3006 RMK A01 T02530167  RH  059%=      5-min Rain = 0
KSC1 260423Z 14006KT 25/17 A3006 RMK A01 T02530166  RH  059%=      5-min Rain = 0
KSC1 260424Z 14007KT 25/17 A3006 RMK A01 T02540166  RH  058%=      5-min Rain = 0
KSC1 260425Z 14009KT 25/17 A3006 RMK A01 T02540167  RH  058%=      5-min Rain = 0
KSC1 260426Z 14010KT 26/17 A3006 RMK A01 T02550167  RH  058%=      5-min Rain = 0
KSC1 260427Z 14007KT 26/17 A3006 RMK A01 T02560167  RH  058%=      5-min Rain = 0
KSC1 260428Z 14009KT 26/17 A3006 RMK A01 T02560167  RH  058%=      5-min Rain = 0
KSC1 260429Z 15008KT 26/17 A3006 RMK A01 T02560168  RH  058%=      5-min Rain = 0
KSC1 260430Z 14007KT 26/17 A3006 RMK A01 T02570168  RH  058%=      5-min Rain = 0
KSC1 260431Z 14008KT 26/17 A3006 RMK A01 T02570168  RH  058%=      5-min Rain = 0
KSC1 260432Z 15010KT 26/17 A3006 RMK A01 T02560168  RH  058%=      5-min Rain = 0
KSC1 260433Z 14009KT 26/17 A3006 RMK A01 T02570168  RH  058%=      5-min Rain = 0
KSC1 260434Z 14009KT 26/17 A3006 RMK A01 T02560168  RH  058%=      5-min Rain = 0
KSC1 260435Z 15008KT 26/17 A3006 RMK A01 T02560168  RH  058%=      5-min Rain = 0
KSC1 260436Z 15008KT 26/17 A3006 RMK A01 T02570168  RH  058%=      5-min Rain = 0
KSC1 260437Z 15008KT 26/17 A3006 RMK A01 T02560168  RH  058%=      5-min Rain = 0
KSC1 260438Z 14009KT 26/17 A3006 RMK A01 T02560168  RH  058%=      5-min Rain = 0
KSC1 260439Z 14009KT 26/17 A3007 RMK A01 T02550168  RH  058%=      5-min Rain = 0
KSC1 260440Z 15010KT 26/17 A3007 RMK A01 T02560168  RH  059%=      5-min Rain = 0
KSC1 260441Z 14010KT 26/17 A3007 RMK A01 T02560169  RH  059%=      5-min Rain = 0
KSC1 260442Z 15007KT 26/17 A3007 RMK A01 T02560168  RH  059%=      5-min Rain = 0
KSC1 260443Z 14008KT 26/17 A3007 RMK A01 T02560169  RH  059%=      5-min Rain = 0
KSC1 260444Z 15007KT 26/17 A3007 RMK A01 T02550169  RH  059%=      5-min Rain = 0
KSC1 260445Z 14009G15KT 26/17 A3007 RMK A01 T02550169  RH  059%=      5-min Rain = 0
KSC1 260446Z 14010KT 25/17 A3007 RMK A01 T02540169  RH  059%=      5-min Rain = 0
KSC1 260447Z 15010KT 26/17 A3006 RMK A01 T02550169  RH  059%=      5-min Rain = 0
KSC1 260448Z 15009KT 25/17 A3006 RMK A01 T02540169  RH  059%=      5-min Rain = 0
KSC1 260449Z 15008KT 25/17 A3006 RMK A01 T02540169  RH  059%=      5-min Rain = 0
KSC1 260450Z 15007KT 25/17 A3006 RMK A01 T02540169  RH  059%=      5-min Rain = 0
KSC1 260451Z 15007KT 25/17 A3006 RMK A01 T02530168  RH  059%=      5-min Rain = 0
KSC1 260452Z 15007KT 25/17 A3006 RMK A01 T02520169  RH  060%=      5-min Rain = 0
KSC1 260453Z 15007KT 25/17 A3007 RMK A01 T02510168  RH  060%=      5-min Rain = 0
KSC1 260454Z 16008KT 25/17 A3007 RMK A01 T02510169  RH  060%=      5-min Rain = 0
KSC1 260455Z 15007KT 25/17 A3007 RMK A01 T02500168  RH  061%=      5-min Rain = 0
KSC1 260456Z 15006KT 25/17 A3007 RMK A01 T02490168  RH  061%=      5-min Rain = 0
KSC1 260457Z 16006KT 25/17 A3007 RMK A01 T02480169  RH  061%=      5-min Rain = 0
KSC1 260458Z 15006KT 25/17 A3007 RMK A01 T02480168  RH  061%=      5-min Rain = 0
KSC1 260459Z 15007KT 25/17 A3007 RMK A01 T02470168  RH  062%=      5-min Rain = 0

Page generated in 0.0719 seconds.